Observation data for Fort Chadbourne on 07/17/2019      Previous  Date  Next       Current Mesonet Observations  Soil Data  Daily Summary Page  Observations in Plain Language
KCH1 170500Z 15005KT 28/19 A30 RMK A01 T02810194  RH  059%=      5-min Rain = 0
KCH1 170501Z 14005KT 28/19 A30 RMK A01 T02800194  RH  060%=      5-min Rain = 0
KCH1 170502Z 14007KT 28/19 A30 RMK A01 T02800194  RH  060%=      5-min Rain = 0
KCH1 170503Z 14006KT 28/19 A30 RMK A01 T02800194  RH  060%=      5-min Rain = 0
KCH1 170504Z 14005KT 28/19 A30 RMK A01 T02800194  RH  060%=      5-min Rain = 0
KCH1 170505Z 14005KT 28/20 A30 RMK A01 T02800195  RH  060%=      5-min Rain = 0
KCH1 170506Z 14006KT 28/19 A30 RMK A01 T02790194  RH  060%=      5-min Rain = 0
KCH1 170507Z 14006KT 28/20 A30 RMK A01 T02790195  RH  060%=      5-min Rain = 0
KCH1 170508Z 14006KT 28/19 A30 RMK A01 T02790194  RH  060%=      5-min Rain = 0
KCH1 170509Z 14005KT 28/20 A30 RMK A01 T02790195  RH  060%=      5-min Rain = 0
KCH1 170510Z 14006KT 28/19 A30 RMK A01 T02780194  RH  060%=      5-min Rain = 0
KCH1 170511Z 14007KT 28/20 A30 RMK A01 T02780195  RH  060%=      5-min Rain = 0
KCH1 170512Z 14007KT 28/19 A30 RMK A01 T02780194  RH  060%=      5-min Rain = 0
KCH1 170513Z 14008KT 28/19 A30 RMK A01 T02780194  RH  060%=      5-min Rain = 0
KCH1 170514Z 15006KT 28/19 A30 RMK A01 T02790194  RH  060%=      5-min Rain = 0
KCH1 170515Z 14006KT 28/20 A30 RMK A01 T02790195  RH  060%=      5-min Rain = 0
KCH1 170516Z 14006KT 28/20 A30 RMK A01 T02790195  RH  060%=      5-min Rain = 0
KCH1 170517Z 14007KT 28/20 A30 RMK A01 T02790195  RH  060%=      5-min Rain = 0
KCH1 170518Z 14006KT 28/20 A30 RMK A01 T02790195  RH  060%=      5-min Rain = 0
KCH1 170519Z 14006KT 28/20 A30 RMK A01 T02780195  RH  060%=      5-min Rain = 0
KCH1 170520Z 14007KT 28/20 A30 RMK A01 T02780195  RH  061%=      5-min Rain = 0
KCH1 170521Z 13006KT 28/20 A30 RMK A01 T02770195  RH  061%=      5-min Rain = 0
KCH1 170522Z 13005KT 28/20 A30 RMK A01 T02780195  RH  061%=      5-min Rain = 0
KCH1 170523Z 14005KT 28/20 A30 RMK A01 T02770195  RH  061%=      5-min Rain = 0
KCH1 170524Z 14005KT 28/20 A30 RMK A01 T02760195  RH  061%=      5-min Rain = 0
KCH1 170525Z 14006KT 28/20 A30 RMK A01 T02760195  RH  061%=      5-min Rain = 0
KCH1 170526Z 14006KT 28/20 A30 RMK A01 T02760195  RH  061%=      5-min Rain = 0
KCH1 170527Z 14007KT 28/20 A30 RMK A01 T02760195  RH  061%=      5-min Rain = 0
KCH1 170528Z 14006KT 28/20 A3001 RMK A01 T02760195  RH  061%=      5-min Rain = 0
KCH1 170529Z 14007KT 28/20 A3001 RMK A01 T02760195  RH  061%=      5-min Rain = 0
KCH1 170530Z 14006KT 28/20 A3001 RMK A01 T02760195  RH  061%=      5-min Rain = 0
KCH1 170531Z 13006KT 28/20 A3001 RMK A01 T02760195  RH  061%=      5-min Rain = 0
KCH1 170532Z 14007KT 28/20 A3001 RMK A01 T02760195  RH  061%=      5-min Rain = 0
KCH1 170533Z 14007KT 28/20 A3001 RMK A01 T02760195  RH  061%=      5-min Rain = 0
KCH1 170534Z 14006KT 28/20 A3001 RMK A01 T02760195  RH  061%=      5-min Rain = 0
KCH1 170535Z 14007KT 28/20 A3001 RMK A01 T02760195  RH  061%=      5-min Rain = 0
KCH1 170536Z 14006KT 28/20 A3001 RMK A01 T02760195  RH  061%=      5-min Rain = 0
KCH1 170537Z 15007KT 28/20 A3001 RMK A01 T02760195  RH  062%=      5-min Rain = 0
KCH1 170538Z 15006KT 28/20 A3001 RMK A01 T02750196  RH  062%=      5-min Rain = 0
KCH1 170539Z 14006KT 28/20 A3001 RMK A01 T02750195  RH  062%=      5-min Rain = 0
KCH1 170540Z 14006KT 27/20 A3001 RMK A01 T02740195  RH  062%=      5-min Rain = 0
KCH1 170541Z 15008KT 28/20 A3001 RMK A01 T02750196  RH  062%=      5-min Rain = 0
KCH1 170542Z 14007KT 27/20 A3001 RMK A01 T02740195  RH  062%=      5-min Rain = 0
KCH1 170543Z 14007KT 27/20 A3001 RMK A01 T02740195  RH  062%=      5-min Rain = 0
KCH1 170544Z 14006KT 27/20 A3001 RMK A01 T02740195  RH  062%=      5-min Rain = 0
KCH1 170545Z 14006KT 28/20 A3001 RMK A01 T02750196  RH  062%=      5-min Rain = 0
KCH1 170546Z 14007KT 27/20 A3001 RMK A01 T02740195  RH  062%=      5-min Rain = 0
KCH1 170547Z 14007KT 27/20 A3001 RMK A01 T02740195  RH  062%=      5-min Rain = 0
KCH1 170548Z 14007KT 27/20 A3001 RMK A01 T02740195  RH  062%=      5-min Rain = 0
KCH1 170549Z 14006KT 27/20 A3001 RMK A01 T02740196  RH  062%=      5-min Rain = 0
KCH1 170550Z 14007KT 27/20 A3001 RMK A01 T02740196  RH  062%=      5-min Rain = 0
KCH1 170551Z 14006KT 27/20 A3001 RMK A01 T02740196  RH  062%=      5-min Rain = 0
KCH1 170552Z 14006KT 27/20 A3001 RMK A01 T02740196  RH  062%=      5-min Rain = 0
KCH1 170553Z 15005KT 27/20 A3001 RMK A01 T02740196  RH  062%=      5-min Rain = 0
KCH1 170554Z 14007KT 27/20 A3001 RMK A01 T02730196  RH  063%=      5-min Rain = 0
KCH1 170555Z 14008KT 27/20 A3001 RMK A01 T02730196  RH  063%=      5-min Rain = 0
KCH1 170556Z 14006KT 27/20 A3001 RMK A01 T02730196  RH  063%=      5-min Rain = 0
KCH1 170557Z 14007KT 27/20 A3001 RMK A01 T02730196  RH  063%=      5-min Rain = 0
KCH1 170558Z 14006KT 27/20 A3001 RMK A01 T02740196  RH  063%=      5-min Rain = 0
KCH1 170559Z 14007KT 27/20 A3001 RMK A01 T02730196  RH  063%=      5-min Rain = 0
KCH1 170600Z 14007KT 27/20 A3001 RMK A01 T02740196  RH  063%=      5-min Rain = 0
KCH1 170601Z 15007KT 27/20 A3001 RMK A01 T02740196  RH  063%=      5-min Rain = 0
KCH1 170602Z 15006KT 27/20 A3001 RMK A01 T02740196  RH  063%=      5-min Rain = 0
KCH1 170603Z 15006KT 27/20 A3001 RMK A01 T02730196  RH  063%=      5-min Rain = 0
KCH1 170604Z 15006KT 27/20 A3001 RMK A01 T02730197  RH  063%=      5-min Rain = 0
KCH1 170605Z 15007KT 27/20 A3001 RMK A01 T02730197  RH  063%=      5-min Rain = 0
KCH1 170606Z 15006KT 27/20 A3001 RMK A01 T02730197  RH  063%=      5-min Rain = 0
KCH1 170607Z 15007KT 27/20 A3001 RMK A01 T02730197  RH  063%=      5-min Rain = 0
KCH1 170608Z 15006KT 27/20 A3001 RMK A01 T02730197  RH  063%=      5-min Rain = 0
KCH1 170609Z 15005KT 27/20 A3001 RMK A01 T02730197  RH  063%=      5-min Rain = 0
KCH1 170610Z 15006KT 27/20 A3001 RMK A01 T02720197  RH  063%=      5-min Rain = 0
KCH1 170611Z 16006KT 27/20 A3001 RMK A01 T02720197  RH  063%=      5-min Rain = 0
KCH1 170612Z 15006KT 27/20 A3001 RMK A01 T02720197  RH  063%=      5-min Rain = 0
KCH1 170613Z 15006KT 27/20 A3001 RMK A01 T02720197  RH  064%=      5-min Rain = 0
KCH1 170614Z 16004KT 27/20 A3001 RMK A01 T02710197  RH  064%=      5-min Rain = 0
KCH1 170615Z 15005KT 27/20 A3001 RMK A01 T02710197  RH  064%=      5-min Rain = 0
KCH1 170616Z 15006KT 27/20 A3001 RMK A01 T02710198  RH  064%=      5-min Rain = 0
KCH1 170617Z 15006KT 27/20 A3001 RMK A01 T02700198  RH  064%=      5-min Rain = 0
KCH1 170618Z 15007KT 27/20 A3001 RMK A01 T02700198  RH  064%=      5-min Rain = 0
KCH1 170619Z 15006KT 27/20 A3001 RMK A01 T02700197  RH  064%=      5-min Rain = 0
KCH1 170620Z 15005KT 27/20 A3001 RMK A01 T02710197  RH  064%=      5-min Rain = 0
KCH1 170621Z 15006KT 27/20 A3001 RMK A01 T02710198  RH  064%=      5-min Rain = 0
KCH1 170622Z 15007KT 27/20 A3001 RMK A01 T02700198  RH  065%=      5-min Rain = 0
KCH1 170623Z 16005KT 27/20 A3001 RMK A01 T02700198  RH  065%=      5-min Rain = 0
KCH1 170624Z 15006KT 27/20 A3001 RMK A01 T02700198  RH  065%=      5-min Rain = 0
KCH1 170625Z 16005KT 27/20 A3001 RMK A01 T02700198  RH  065%=      5-min Rain = 0
KCH1 170626Z 15005KT 27/20 A3001 RMK A01 T02690198  RH  065%=      5-min Rain = 0
KCH1 170627Z 15006KT 27/20 A3001 RMK A01 T02690198  RH  065%=      5-min Rain = 0
KCH1 170628Z 15006KT 27/20 A3001 RMK A01 T02680198  RH  065%=      5-min Rain = 0
KCH1 170629Z 14006KT 27/20 A3001 RMK A01 T02680198  RH  065%=      5-min Rain = 0
KCH1 170630Z 15005KT 27/20 A3001 RMK A01 T02680198  RH  066%=      5-min Rain = 0
KCH1 170631Z 15005KT 27/20 A3001 RMK A01 T02680198  RH  066%=      5-min Rain = 0
KCH1 170632Z 15005KT 27/20 A3001 RMK A01 T02670198  RH  066%=      5-min Rain = 0
KCH1 170633Z 14005KT 27/20 A3001 RMK A01 T02670198  RH  066%=      5-min Rain = 0
KCH1 170634Z 15005KT 27/20 A3001 RMK A01 T02660198  RH  066%=      5-min Rain = 0
KCH1 170635Z 15005KT 27/20 A3001 RMK A01 T02660198  RH  066%=      5-min Rain = 0
KCH1 170636Z 15004KT 27/20 A3001 RMK A01 T02650198  RH  067%=      5-min Rain = 0
KCH1 170637Z 15004KT 27/20 A3001 RMK A01 T02650198  RH  067%=      5-min Rain = 0
KCH1 170638Z 15004KT 27/20 A3001 RMK A01 T02650198  RH  067%=      5-min Rain = 0
KCH1 170639Z 15004KT 27/20 A3001 RMK A01 T02650198  RH  067%=      5-min Rain = 0
KCH1 170640Z 15005KT 26/20 A3001 RMK A01 T02640198  RH  067%=      5-min Rain = 0
KCH1 170641Z 15004KT 26/20 A3001 RMK A01 T02640198  RH  067%=      5-min Rain = 0
KCH1 170642Z 15005KT 26/20 A3001 RMK A01 T02640198  RH  067%=      5-min Rain = 0
KCH1 170643Z 15004KT 26/20 A3001 RMK A01 T02640198  RH  067%=      5-min Rain = 0
KCH1 170644Z 15004KT 26/20 A3001 RMK A01 T02640198  RH  067%=      5-min Rain = 0
KCH1 170645Z 15004KT 26/20 A3001 RMK A01 T02640198  RH  067%=      5-min Rain = 0
KCH1 170646Z 15005KT 26/20 A3001 RMK A01 T02640198  RH  067%=      5-min Rain = 0
KCH1 170647Z 15005KT 26/20 A3001 RMK A01 T02630198  RH  067%=      5-min Rain = 0
KCH1 170648Z 14004KT 26/20 A3001 RMK A01 T02630198  RH  067%=      5-min Rain = 0
KCH1 170649Z 14004KT 26/20 A3001 RMK A01 T02630198  RH  068%=      5-min Rain = 0
KCH1 170650Z 14005KT 26/20 A3001 RMK A01 T02620198  RH  068%=      5-min Rain = 0
KCH1 170651Z 14005KT 26/20 A3001 RMK A01 T02620198  RH  068%=      5-min Rain = 0
KCH1 170652Z 14005KT 26/20 A3001 RMK A01 T02620198  RH  068%=      5-min Rain = 0
KCH1 170653Z 14005KT 26/20 A3001 RMK A01 T02620198  RH  068%=      5-min Rain = 0
KCH1 170654Z 15005KT 26/20 A3001 RMK A01 T02620198  RH  068%=      5-min Rain = 0
KCH1 170655Z 14005KT 26/20 A3001 RMK A01 T02620198  RH  068%=      5-min Rain = 0
KCH1 170656Z 14005KT 26/20 A3001 RMK A01 T02610198  RH  068%=      5-min Rain = 0
KCH1 170657Z 14005KT 26/20 A3001 RMK A01 T02610198  RH  068%=      5-min Rain = 0
KCH1 170658Z 15004KT 26/20 A3001 RMK A01 T02610199  RH  068%=      5-min Rain = 0
KCH1 170659Z 14005KT 26/20 A3001 RMK A01 T02610198  RH  068%=      5-min Rain = 0
KCH1 170700Z 15005KT 26/20 A3001 RMK A01 T02600198  RH  069%=      5-min Rain = 0
KCH1 170701Z 15005KT 26/20 A3001 RMK A01 T02600198  RH  069%=      5-min Rain = 0
KCH1 170702Z 15005KT 26/20 A3001 RMK A01 T02590198  RH  069%=      5-min Rain = 0
KCH1 170703Z 14005KT 26/20 A3001 RMK A01 T02590198  RH  069%=      5-min Rain = 0
KCH1 170704Z 15005KT 26/20 A3001 RMK A01 T02590198  RH  069%=      5-min Rain = 0
KCH1 170705Z 14006KT 26/20 A3001 RMK A01 T02590198  RH  069%=      5-min Rain = 0
KCH1 170706Z 15005KT 26/20 A3001 RMK A01 T02580198  RH  070%=      5-min Rain = 0
KCH1 170707Z 15005KT 26/20 A3001 RMK A01 T02580198  RH  070%=      5-min Rain = 0
KCH1 170708Z 15004KT 26/20 A3001 RMK A01 T02570198  RH  070%=      5-min Rain = 0
KCH1 170709Z 15005KT 26/20 A3001 RMK A01 T02570198  RH  070%=      5-min Rain = 0
KCH1 170710Z 15004KT 26/20 A3001 RMK A01 T02570198  RH  070%=      5-min Rain = 0
KCH1 170711Z 15005KT 26/20 A3001 RMK A01 T02570198  RH  070%=      5-min Rain = 0
KCH1 170712Z 15004KT 26/20 A3001 RMK A01 T02560198  RH  070%=      5-min Rain = 0
KCH1 170713Z 16005KT 26/20 A3001 RMK A01 T02570198  RH  070%=      5-min Rain = 0
KCH1 170714Z 16005KT 26/20 A3001 RMK A01 T02570198  RH  070%=      5-min Rain = 0
KCH1 170715Z 16004KT 26/20 A3001 RMK A01 T02570198  RH  070%=      5-min Rain = 0
KCH1 170716Z 15004KT 26/20 A3001 RMK A01 T02570198  RH  070%=      5-min Rain = 0
KCH1 170717Z 15004KT 26/20 A3001 RMK A01 T02580198  RH  070%=      5-min Rain = 0
KCH1 170718Z 15004KT 26/20 A3001 RMK A01 T02570198  RH  070%=      5-min Rain = 0
KCH1 170719Z 15004KT 26/20 A3001 RMK A01 T02570198  RH  070%=      5-min Rain = 0
KCH1 170720Z 16004KT 26/20 A3001 RMK A01 T02570197  RH  070%=      5-min Rain = 0
KCH1 170721Z 16004KT 26/20 A3001 RMK A01 T02570198  RH  070%=      5-min Rain = 0
KCH1 170722Z 15005KT 26/20 A3001 RMK A01 T02570198  RH  070%=      5-min Rain = 0
KCH1 170723Z 15005KT 26/20 A3001 RMK A01 T02570198  RH  070%=      5-min Rain = 0
KCH1 170724Z 15004KT 26/20 A3001 RMK A01 T02570199  RH  070%=      5-min Rain = 0
KCH1 170725Z 15005KT 26/20 A3001 RMK A01 T02570198  RH  070%=      5-min Rain = 0
KCH1 170726Z 15004KT 26/20 A3001 RMK A01 T02570198  RH  070%=      5-min Rain = 0
KCH1 170727Z 15005KT 26/20 A3001 RMK A01 T02560198  RH  070%=      5-min Rain = 0
KCH1 170728Z 15005KT 26/20 A3001 RMK A01 T02550198  RH  071%=      5-min Rain = 0
KCH1 170729Z 16005KT 26/20 A3001 RMK A01 T02550198  RH  071%=      5-min Rain = 0
KCH1 170730Z 15005KT 26/20 A3001 RMK A01 T02550198  RH  071%=      5-min Rain = 0
KCH1 170731Z 16004KT 26/20 A3001 RMK A01 T02560198  RH  071%=      5-min Rain = 0
KCH1 170732Z 15004KT 26/20 A3001 RMK A01 T02550198  RH  071%=      5-min Rain = 0
KCH1 170733Z 16004KT 26/20 A3001 RMK A01 T02550198  RH  071%=      5-min Rain = 0
KCH1 170734Z 15004KT 25/20 A3001 RMK A01 T02540198  RH  071%=      5-min Rain = 0
KCH1 170735Z 16004KT 25/20 A3001 RMK A01 T02540197  RH  071%=      5-min Rain = 0
KCH1 170736Z 16003KT 25/20 A3001 RMK A01 T02540198  RH  071%=      5-min Rain = 0
KCH1 170737Z 17004KT 25/20 A3001 RMK A01 T02540198  RH  071%=      5-min Rain = 0
KCH1 170738Z 17003KT 25/20 A3001 RMK A01 T02540198  RH  071%=      5-min Rain = 0
KCH1 170739Z 17004KT 25/20 A3001 RMK A01 T02540198  RH  071%=      5-min Rain = 0
KCH1 170740Z 16004KT 25/20 A3001 RMK A01 T02540198  RH  071%=      5-min Rain = 0
KCH1 170741Z 17003KT 25/20 A3001 RMK A01 T02530198  RH  072%=      5-min Rain = 0
KCH1 170742Z 17004KT 25/20 A3001 RMK A01 T02530198  RH  072%=      5-min Rain = 0
KCH1 170743Z 16004KT 25/20 A3001 RMK A01 T02520198  RH  072%=      5-min Rain = 0
KCH1 170744Z 17003KT 25/20 A3001 RMK A01 T02520198  RH  072%=      5-min Rain = 0
KCH1 170745Z 16003KT 25/20 A3001 RMK A01 T02520198  RH  072%=      5-min Rain = 0
KCH1 170746Z 16003KT 25/20 A3001 RMK A01 T02520198  RH  072%=      5-min Rain = 0
KCH1 170747Z 17004KT 25/20 A3001 RMK A01 T02520198  RH  072%=      5-min Rain = 0
KCH1 170748Z 17004KT 25/20 A3001 RMK A01 T02520198  RH  072%=      5-min Rain = 0
KCH1 170749Z 17003KT 25/20 A3001 RMK A01 T02510198  RH  072%=      5-min Rain = 0
KCH1 170750Z 17003KT 25/20 A3001 RMK A01 T02510198  RH  072%=      5-min Rain = 0
KCH1 170751Z 17003KT 25/20 A3001 RMK A01 T02510198  RH  072%=      5-min Rain = 0
KCH1 170752Z 17003KT 25/20 A3001 RMK A01 T02500198  RH  072%=      5-min Rain = 0
KCH1 170753Z 16003KT 25/20 A3001 RMK A01 T02510198  RH  072%=      5-min Rain = 0
KCH1 170754Z 16002KT 25/20 A3001 RMK A01 T02510198  RH  073%=      5-min Rain = 0
KCH1 170755Z 16003KT 25/20 A3001 RMK A01 T02500198  RH  073%=      5-min Rain = 0
KCH1 170756Z 15003KT 25/20 A3001 RMK A01 T02500198  RH  073%=      5-min Rain = 0
KCH1 170757Z 15003KT 25/20 A3001 RMK A01 T02500198  RH  073%=      5-min Rain = 0
KCH1 170758Z 15002KT 25/20 A3001 RMK A01 T02500198  RH  073%=      5-min Rain = 0
KCH1 170759Z 14002KT 25/20 A3001 RMK A01 T02500198  RH  073%=      5-min Rain = 0
KCH1 170800Z 15002KT 25/20 A3001 RMK A01 T02500198  RH  073%=      5-min Rain = 0
KCH1 170801Z 15003KT 25/20 A3001 RMK A01 T02490198  RH  073%=      5-min Rain = 0
KCH1 170802Z 16003KT 25/20 A3001 RMK A01 T02490198  RH  073%=      5-min Rain = 0
KCH1 170803Z 15003KT 25/20 A3001 RMK A01 T02490198  RH  073%=      5-min Rain = 0
KCH1 170804Z 16003KT 25/20 A3002 RMK A01 T02490198  RH  073%=      5-min Rain = 0
KCH1 170805Z 16003KT 25/20 A3002 RMK A01 T02490198  RH  073%=      5-min Rain = 0
KCH1 170806Z 16003KT 25/20 A3001 RMK A01 T02480198  RH  074%=      5-min Rain = 0
KCH1 170807Z 16003KT 25/20 A3001 RMK A01 T02470198  RH  074%=      5-min Rain = 0
KCH1 170808Z 16004KT 25/20 A3001 RMK A01 T02480199  RH  074%=      5-min Rain = 0
KCH1 170809Z 16003KT 25/20 A3001 RMK A01 T02470198  RH  074%=      5-min Rain = 0
KCH1 170810Z 16004KT 25/20 A3001 RMK A01 T02470198  RH  074%=      5-min Rain = 0
KCH1 170811Z 17004KT 25/20 A3001 RMK A01 T02470198  RH  074%=      5-min Rain = 0
KCH1 170812Z 16004KT 25/20 A3001 RMK A01 T02460198  RH  074%=      5-min Rain = 0
KCH1 170813Z 17003KT 25/20 A3001 RMK A01 T02470198  RH  074%=      5-min Rain = 0
KCH1 170814Z 17003KT 25/20 A3001 RMK A01 T02460199  RH  075%=      5-min Rain = 0
KCH1 170815Z 17004KT 25/20 A3001 RMK A01 T02460198  RH  075%=      5-min Rain = 0
KCH1 170816Z 17003KT 25/20 A3001 RMK A01 T02460199  RH  075%=      5-min Rain = 0
KCH1 170817Z 17004KT 25/20 A3001 RMK A01 T02460199  RH  075%=      5-min Rain = 0
KCH1 170818Z 17003KT 25/20 A3001 RMK A01 T02460199  RH  075%=      5-min Rain = 0
KCH1 170819Z 16003KT 25/20 A3001 RMK A01 T02450199  RH  075%=      5-min Rain = 0
KCH1 170820Z 16004KT 25/20 A3001 RMK A01 T02450199  RH  075%=      5-min Rain = 0
KCH1 170821Z 16004KT 25/20 A3001 RMK A01 T02450199  RH  075%=      5-min Rain = 0
KCH1 170822Z 16004KT 25/20 A3001 RMK A01 T02450199  RH  075%=      5-min Rain = 0
KCH1 170823Z 16004KT 25/20 A3001 RMK A01 T02450199  RH  076%=      5-min Rain = 0
KCH1 170824Z 16004KT 24/20 A3001 RMK A01 T02440199  RH  076%=      5-min Rain = 0
KCH1 170825Z 16004KT 24/20 A3001 RMK A01 T02440199  RH  076%=      5-min Rain = 0
KCH1 170826Z 16004KT 24/20 A3001 RMK A01 T02440199  RH  076%=      5-min Rain = 0
KCH1 170827Z 15004KT 24/20 A3001 RMK A01 T02430199  RH  076%=      5-min Rain = 0
KCH1 170828Z 15004KT 24/20 A3001 RMK A01 T02430199  RH  076%=      5-min Rain = 0
KCH1 170829Z 15003KT 24/20 A3001 RMK A01 T02430199  RH  077%=      5-min Rain = 0
KCH1 170830Z 16004KT 24/20 A3001 RMK A01 T02430199  RH  077%=      5-min Rain = 0
KCH1 170831Z 16004KT 24/20 A3001 RMK A01 T02430199  RH  077%=      5-min Rain = 0
KCH1 170832Z 16004KT 24/20 A3001 RMK A01 T02430200  RH  077%=      5-min Rain = 0
KCH1 170833Z 16005KT 24/20 A3001 RMK A01 T02430200  RH  077%=      5-min Rain = 0
KCH1 170834Z 15004KT 24/20 A3001 RMK A01 T02430200  RH  077%=      5-min Rain = 0
KCH1 170835Z 16004KT 24/20 A3001 RMK A01 T02430200  RH  077%=      5-min Rain = 0
KCH1 170836Z 16004KT 24/20 A3001 RMK A01 T02420199  RH  077%=      5-min Rain = 0
KCH1 170837Z 16003KT 24/20 A3001 RMK A01 T02420200  RH  077%=      5-min Rain = 0
KCH1 170838Z 16003KT 24/20 A3001 RMK A01 T02430200  RH  077%=      5-min Rain = 0
KCH1 170839Z 16004KT 24/20 A3001 RMK A01 T02420200  RH  077%=      5-min Rain = 0
KCH1 170840Z 15004KT 24/20 A3001 RMK A01 T02420200  RH  077%=      5-min Rain = 0
KCH1 170841Z 15004KT 24/20 A3001 RMK A01 T02420200  RH  077%=      5-min Rain = 0
KCH1 170842Z 15004KT 24/20 A3001 RMK A01 T02420200  RH  077%=      5-min Rain = 0
KCH1 170843Z 15003KT 24/20 A3001 RMK A01 T02420200  RH  077%=      5-min Rain = 0
KCH1 170844Z 15003KT 24/20 A3001 RMK A01 T02420200  RH  077%=      5-min Rain = 0
KCH1 170845Z 15003KT 24/20 A3001 RMK A01 T02420200  RH  077%=      5-min Rain = 0
KCH1 170846Z 15003KT 24/20 A3001 RMK A01 T02420200  RH  077%=      5-min Rain = 0
KCH1 170847Z 15003KT 24/20 A3001 RMK A01 T02420200  RH  077%=      5-min Rain = 0
KCH1 170848Z 15003KT 24/20 A3001 RMK A01 T02420200  RH  077%=      5-min Rain = 0
KCH1 170849Z 15003KT 24/20 A3001 RMK A01 T02420200  RH  077%=      5-min Rain = 0
KCH1 170850Z 15003KT 24/20 A3001 RMK A01 T02420200  RH  077%=      5-min Rain = 0
KCH1 170851Z 15003KT 24/20 A3001 RMK A01 T02420200  RH  077%=      5-min Rain = 0
KCH1 170852Z 15003KT 24/20 A3001 RMK A01 T02420200  RH  077%=      5-min Rain = 0
KCH1 170853Z 15003KT 24/20 A3001 RMK A01 T02420200  RH  078%=      5-min Rain = 0
KCH1 170854Z 15004KT 24/20 A3001 RMK A01 T02420200  RH  078%=      5-min Rain = 0
KCH1 170855Z 14004KT 24/20 A3001 RMK A01 T02410200  RH  078%=      5-min Rain = 0
KCH1 170856Z 14004KT 24/20 A3001 RMK A01 T02420200  RH  078%=      5-min Rain = 0
KCH1 170857Z 14004KT 24/20 A3001 RMK A01 T02420200  RH  078%=      5-min Rain = 0
KCH1 170858Z 14004KT 24/20 A3001 RMK A01 T02410200  RH  078%=      5-min Rain = 0
KCH1 170859Z 14004KT 24/20 A3001 RMK A01 T02410200  RH  078%=      5-min Rain = 0
KCH1 170900Z 14004KT 24/20 A3001 RMK A01 T02410200  RH  078%=      5-min Rain = 0
KCH1 170901Z 14004KT 24/20 A3001 RMK A01 T02410200  RH  078%=      5-min Rain = 0
KCH1 170902Z 15004KT 24/20 A3001 RMK A01 T02400200  RH  078%=      5-min Rain = 0
KCH1 170903Z 15004KT 24/20 A3001 RMK A01 T02400200  RH  078%=      5-min Rain = 0
KCH1 170904Z 15004KT 24/20 A3001 RMK A01 T02400201  RH  079%=      5-min Rain = 0
KCH1 170905Z 15004KT 24/20 A3001 RMK A01 T02390200  RH  079%=      5-min Rain = 0
KCH1 170906Z 15004KT 24/20 A3001 RMK A01 T02390200  RH  079%=      5-min Rain = 0
KCH1 170907Z 15004KT 24/20 A3001 RMK A01 T02390200  RH  079%=      5-min Rain = 0
KCH1 170908Z 15004KT 24/20 A3001 RMK A01 T02380200  RH  079%=      5-min Rain = 0
KCH1 170909Z 15004KT 24/20 A3001 RMK A01 T02380201  RH  079%=      5-min Rain = 0
KCH1 170910Z 15004KT 24/20 A3001 RMK A01 T02380201  RH  079%=      5-min Rain = 0
KCH1 170911Z 15004KT 24/20 A3001 RMK A01 T02380201  RH  080%=      5-min Rain = 0
KCH1 170912Z 15004KT 24/20 A3001 RMK A01 T02370200  RH  080%=      5-min Rain = 0
KCH1 170913Z 15004KT 24/20 A3001 RMK A01 T02380201  RH  080%=      5-min Rain = 0
KCH1 170914Z 15004KT 24/20 A3001 RMK A01 T02370201  RH  080%=      5-min Rain = 0
KCH1 170915Z 15003KT 24/20 A3001 RMK A01 T02370201  RH  080%=      5-min Rain = 0
KCH1 170916Z 15003KT 24/20 A3001 RMK A01 T02380201  RH  080%=      5-min Rain = 0
KCH1 170917Z 16003KT 24/20 A3001 RMK A01 T02370201  RH  080%=      5-min Rain = 0
KCH1 170918Z 15003KT 24/20 A3001 RMK A01 T02380201  RH  080%=      5-min Rain = 0
KCH1 170919Z 15003KT 24/20 A3001 RMK A01 T02380201  RH  080%=      5-min Rain = 0
KCH1 170920Z 15003KT 24/20 A3001 RMK A01 T02380201  RH  080%=      5-min Rain = 0
KCH1 170921Z 15003KT 24/20 A3001 RMK A01 T02380201  RH  079%=      5-min Rain = 0
KCH1 170922Z 15003KT 24/20 A3001 RMK A01 T02380201  RH  079%=      5-min Rain = 0
KCH1 170923Z 15003KT 24/20 A3001 RMK A01 T02380201  RH  080%=      5-min Rain = 0
KCH1 170924Z 15003KT 24/20 A3001 RMK A01 T02380201  RH  080%=      5-min Rain = 0
KCH1 170925Z 15004KT 24/20 A3001 RMK A01 T02380201  RH  080%=      5-min Rain = 0
KCH1 170926Z 15003KT 24/20 A3001 RMK A01 T02380202  RH  080%=      5-min Rain = 0
KCH1 170927Z 15003KT 24/20 A3001 RMK A01 T02380202  RH  080%=      5-min Rain = 0
KCH1 170928Z 14003KT 24/20 A3001 RMK A01 T02380201  RH  080%=      5-min Rain = 0
KCH1 170929Z 14004KT 24/20 A3001 RMK A01 T02370201  RH  080%=      5-min Rain = 0
KCH1 170930Z 15004KT 24/20 A3001 RMK A01 T02370202  RH  081%=      5-min Rain = 0
KCH1 170931Z 15004KT 24/20 A3001 RMK A01 T02370202  RH  081%=      5-min Rain = 0
KCH1 170932Z 15004KT 24/20 A3001 RMK A01 T02370202  RH  081%=      5-min Rain = 0
KCH1 170933Z 15004KT 24/20 A3001 RMK A01 T02370202  RH  081%=      5-min Rain = 0
KCH1 170934Z 15004KT 24/20 A3001 RMK A01 T02370202  RH  081%=      5-min Rain = 0
KCH1 170935Z 15003KT 24/20 A3001 RMK A01 T02370203  RH  081%=      5-min Rain = 0
KCH1 170936Z 15003KT 24/20 A3001 RMK A01 T02360202  RH  081%=      5-min Rain = 0
KCH1 170937Z 15003KT 24/20 A3001 RMK A01 T02360202  RH  081%=      5-min Rain = 0
KCH1 170938Z 15003KT 24/20 A3001 RMK A01 T02360202  RH  081%=      5-min Rain = 0
KCH1 170939Z 15003KT 24/20 A3002 RMK A01 T02360203  RH  081%=      5-min Rain = 0
KCH1 170940Z 15003KT 24/20 A3001 RMK A01 T02360203  RH  082%=      5-min Rain = 0
KCH1 170941Z 15003KT 24/20 A3001 RMK A01 T02360203  RH  082%=      5-min Rain = 0
KCH1 170942Z 15003KT 24/20 A3001 RMK A01 T02360203  RH  082%=      5-min Rain = 0
KCH1 170943Z 15003KT 24/20 A3001 RMK A01 T02360203  RH  082%=      5-min Rain = 0
KCH1 170944Z 14002KT 24/20 A3001 RMK A01 T02360203  RH  082%=      5-min Rain = 0
KCH1 170945Z 14002KT 24/20 A3001 RMK A01 T02360203  RH  082%=      5-min Rain = 0
KCH1 170946Z 13002KT 24/20 A3001 RMK A01 T02360203  RH  082%=      5-min Rain = 0
KCH1 170947Z 14002KT 24/20 A3001 RMK A01 T02360203  RH  082%=      5-min Rain = 0
KCH1 170948Z 13002KT 24/20 A3001 RMK A01 T02360203  RH  082%=      5-min Rain = 0
KCH1 170949Z 13002KT 24/20 A3001 RMK A01 T02360203  RH  082%=      5-min Rain = 0
KCH1 170950Z 12002KT 24/20 A3001 RMK A01 T02360203  RH  082%=      5-min Rain = 0
KCH1 170951Z 13003KT 24/20 A3001 RMK A01 T02360204  RH  082%=      5-min Rain = 0
KCH1 170952Z 13003KT 24/20 A3001 RMK A01 T02360204  RH  082%=      5-min Rain = 0
KCH1 170953Z 12002KT 24/20 A3001 RMK A01 T02360204  RH  082%=      5-min Rain = 0
KCH1 170954Z 13003KT 24/20 A3001 RMK A01 T02360203  RH  082%=      5-min Rain = 0
KCH1 170955Z 12003KT 24/20 A3001 RMK A01 T02350203  RH  082%=      5-min Rain = 0
KCH1 170956Z 13003KT 24/20 A3001 RMK A01 T02350204  RH  082%=      5-min Rain = 0
KCH1 170957Z 12003KT 24/20 A3001 RMK A01 T02350204  RH  082%=      5-min Rain = 0
KCH1 170958Z 12003KT 24/20 A3001 RMK A01 T02350203  RH  083%=      5-min Rain = 0
KCH1 170959Z 12003KT 24/20 A3001 RMK A01 T02350204  RH  083%=      5-min Rain = 0
KCH1 171000Z 12003KT 24/20 A3001 RMK A01 T02350204  RH  083%=      5-min Rain = 0
KCH1 171001Z 12003KT 23/20 A3001 RMK A01 T02340204  RH  083%=      5-min Rain = 0
KCH1 171002Z 12002KT 23/20 A3001 RMK A01 T02340204  RH  083%=      5-min Rain = 0
KCH1 171003Z 12003KT 23/20 A3001 RMK A01 T02340204  RH  084%=      5-min Rain = 0
KCH1 171004Z 12003KT 23/20 A3001 RMK A01 T02340204  RH  084%=      5-min Rain = 0
KCH1 171005Z 13003KT 23/20 A3001 RMK A01 T02340204  RH  083%=      5-min Rain = 0
KCH1 171006Z 12003KT 23/20 A3001 RMK A01 T02340204  RH  084%=      5-min Rain = 0
KCH1 171007Z 13003KT 23/21 A3001 RMK A01 T02340205  RH  084%=      5-min Rain = 0
KCH1 171008Z 13003KT 23/21 A3001 RMK A01 T02340205  RH  084%=      5-min Rain = 0
KCH1 171009Z 13004KT 23/21 A3001 RMK A01 T02340205  RH  084%=      5-min Rain = 0
KCH1 171010Z 14003KT 23/21 A3001 RMK A01 T02340205  RH  084%=      5-min Rain = 0
KCH1 171011Z 14004KT 23/21 A3001 RMK A01 T02340205  RH  084%=      5-min Rain = 0
KCH1 171012Z 14004KT 23/21 A3001 RMK A01 T02340205  RH  084%=      5-min Rain = 0
KCH1 171013Z 14004KT 23/21 A3001 RMK A01 T02340206  RH  084%=      5-min Rain = 0
KCH1 171014Z 14004KT 23/21 A3001 RMK A01 T02340206  RH  084%=      5-min Rain = 0
KCH1 171015Z 14004KT 23/21 A3001 RMK A01 T02340207  RH  085%=      5-min Rain = 0
KCH1 171016Z 14004KT 23/21 A3001 RMK A01 T02340206  RH  085%=      5-min Rain = 0
KCH1 171017Z 14004KT 23/21 A3002 RMK A01 T02340207  RH  085%=      5-min Rain = 0
KCH1 171018Z 14005KT 23/21 A3002 RMK A01 T02340207  RH  085%=      5-min Rain = 0
KCH1 171019Z 14004KT 23/21 A3002 RMK A01 T02340207  RH  085%=      5-min Rain = 0
KCH1 171020Z 15005KT 23/21 A3002 RMK A01 T02340207  RH  085%=      5-min Rain = 0
KCH1 171021Z 14004KT 23/21 A3002 RMK A01 T02330207  RH  085%=      5-min Rain = 0
KCH1 171022Z 14004KT 23/21 A3002 RMK A01 T02330207  RH  086%=      5-min Rain = 0
KCH1 171023Z 15005KT 23/21 A3002 RMK A01 T02330208  RH  086%=      5-min Rain = 0
KCH1 171024Z 15004KT 23/21 A3002 RMK A01 T02330208  RH  086%=      5-min Rain = 0
KCH1 171025Z 15004KT 23/21 A3002 RMK A01 T02330208  RH  086%=      5-min Rain = 0
KCH1 171026Z 15004KT 23/21 A3002 RMK A01 T02320208  RH  086%=      5-min Rain = 0
KCH1 171027Z 15004KT 23/21 A3002 RMK A01 T02320208  RH  086%=      5-min Rain = 0
KCH1 171028Z 14004KT 23/21 A3002 RMK A01 T02320208  RH  086%=      5-min Rain = 0
KCH1 171029Z 14004KT 23/21 A3002 RMK A01 T02320208  RH  086%=      5-min Rain = 0
KCH1 171030Z 14003KT 23/21 A3002 RMK A01 T02320208  RH  086%=      5-min Rain = 0
KCH1 171031Z 14003KT 23/21 A3002 RMK A01 T02320208  RH  086%=      5-min Rain = 0
KCH1 171032Z 14003KT 23/21 A3002 RMK A01 T02320208  RH  086%=      5-min Rain = 0
KCH1 171033Z 14003KT 23/21 A3002 RMK A01 T02320208  RH  086%=      5-min Rain = 0
KCH1 171034Z 14003KT 23/21 A3002 RMK A01 T02320208  RH  086%=      5-min Rain = 0
KCH1 171035Z 13003KT 23/21 A3002 RMK A01 T02320209  RH  087%=      5-min Rain = 0
KCH1 171036Z 13003KT 23/21 A3002 RMK A01 T02320209  RH  087%=      5-min Rain = 0
KCH1 171037Z 14003KT 23/21 A3002 RMK A01 T02320209  RH  087%=      5-min Rain = 0
KCH1 171038Z 13003KT 23/21 A3002 RMK A01 T02320209  RH  087%=      5-min Rain = 0
KCH1 171039Z 13003KT 23/21 A3002 RMK A01 T02320210  RH  087%=      5-min Rain = 0
KCH1 171040Z 13003KT 23/21 A3002 RMK A01 T02320209  RH  087%=      5-min Rain = 0
KCH1 171041Z 13003KT 23/21 A3002 RMK A01 T02320209  RH  087%=      5-min Rain = 0
KCH1 171042Z 12003KT 23/21 A3002 RMK A01 T02320209  RH  087%=      5-min Rain = 0
KCH1 171043Z 13003KT 23/21 A3002 RMK A01 T02320209  RH  087%=      5-min Rain = 0
KCH1 171044Z 13004KT 23/21 A3002 RMK A01 T02310209  RH  087%=      5-min Rain = 0
KCH1 171045Z 12004KT 23/21 A3002 RMK A01 T02310209  RH  087%=      5-min Rain = 0
KCH1 171046Z 12004KT 23/21 A3002 RMK A01 T02320209  RH  087%=      5-min Rain = 0
KCH1 171047Z 12004KT 23/21 A3002 RMK A01 T02320210  RH  087%=      5-min Rain = 0
KCH1 171048Z 13004KT 23/21 A3002 RMK A01 T02310210  RH  088%=      5-min Rain = 0
KCH1 171049Z 13004KT 23/21 A3002 RMK A01 T02310210  RH  088%=      5-min Rain = 0
KCH1 171050Z 13004KT 23/21 A3002 RMK A01 T02310210  RH  088%=      5-min Rain = 0
KCH1 171051Z 13004KT 23/21 A3002 RMK A01 T02310210  RH  088%=      5-min Rain = 0
KCH1 171052Z 13005KT 23/21 A3002 RMK A01 T02310210  RH  088%=      5-min Rain = 0
KCH1 171053Z 13005KT 23/21 A3002 RMK A01 T02310210  RH  088%=      5-min Rain = 0
KCH1 171054Z 14004KT 23/21 A3002 RMK A01 T02310211  RH  089%=      5-min Rain = 0
KCH1 171055Z 13005KT 23/21 A3002 RMK A01 T02310211  RH  089%=      5-min Rain = 0
KCH1 171056Z 14005KT 23/21 A3002 RMK A01 T02310211  RH  089%=      5-min Rain = 0
KCH1 171057Z 14005KT 23/21 A3002 RMK A01 T02310211  RH  089%=      5-min Rain = 0
KCH1 171058Z 14005KT 23/21 A3002 RMK A01 T02310211  RH  089%=      5-min Rain = 0
KCH1 171059Z 14005KT 23/21 A3002 RMK A01 T02300211  RH  089%=      5-min Rain = 0
KCH1 171100Z 14005KT 23/21 A3002 RMK A01 T02310212  RH  089%=      5-min Rain = 0
KCH1 171101Z 14005KT 23/21 A3002 RMK A01 T02310212  RH  089%=      5-min Rain = 0
KCH1 171102Z 14005KT 23/21 A3002 RMK A01 T02310212  RH  089%=      5-min Rain = 0
KCH1 171103Z 14005KT 23/21 A3002 RMK A01 T02310212  RH  089%=      5-min Rain = 0
KCH1 171104Z 15005KT 23/21 A3002 RMK A01 T02300212  RH  089%=      5-min Rain = 0
KCH1 171105Z 14005KT 23/21 A3002 RMK A01 T02310213  RH  090%=      5-min Rain = 0
KCH1 171106Z 14005KT 23/21 A3002 RMK A01 T02310213  RH  090%=      5-min Rain = 0
KCH1 171107Z 14005KT 23/21 A3002 RMK A01 T02310213  RH  090%=      5-min Rain = 0
KCH1 171108Z 14005KT 23/21 A3002 RMK A01 T02310213  RH  090%=      5-min Rain = 0
KCH1 171109Z 15005KT 23/21 A3002 RMK A01 T02310213  RH  090%=      5-min Rain = 0
KCH1 171110Z 14005KT 23/21 A3002 RMK A01 T02310213  RH  090%=      5-min Rain = 0
KCH1 171111Z 14004KT 23/21 A3002 RMK A01 T02310213  RH  090%=      5-min Rain = 0
KCH1 171112Z 14004KT 23/21 A3002 RMK A01 T02310213  RH  090%=      5-min Rain = 0
KCH1 171113Z 14005KT 23/21 A3002 RMK A01 T02310213  RH  090%=      5-min Rain = 0
KCH1 171114Z 14004KT 23/21 A3002 RMK A01 T02310213  RH  090%=      5-min Rain = 0
KCH1 171115Z 14004KT 23/21 A3002 RMK A01 T02310213  RH  090%=      5-min Rain = 0
KCH1 171116Z 15004KT 23/21 A3002 RMK A01 T02310214  RH  090%=      5-min Rain = 0
KCH1 171117Z 15004KT 23/21 A3002 RMK A01 T02300214  RH  090%=      5-min Rain = 0
KCH1 171118Z 15004KT 23/21 A3002 RMK A01 T02300213  RH  090%=      5-min Rain = 0
KCH1 171119Z 15004KT 23/21 A3002 RMK A01 T02300214  RH  090%=      5-min Rain = 0
KCH1 171120Z 15004KT 23/21 A3002 RMK A01 T02300214  RH  090%=      5-min Rain = 0
KCH1 171121Z 15004KT 23/21 A3002 RMK A01 T02300214  RH  090%=      5-min Rain = 0
KCH1 171122Z 15005KT 23/21 A3002 RMK A01 T02300213  RH  090%=      5-min Rain = 0
KCH1 171123Z 14004KT 23/21 A3002 RMK A01 T02300214  RH  091%=      5-min Rain = 0
KCH1 171124Z 15004KT 23/21 A3002 RMK A01 T02300214  RH  091%=      5-min Rain = 0
KCH1 171125Z 14004KT 23/21 A3002 RMK A01 T02300214  RH  091%=      5-min Rain = 0
KCH1 171126Z 14004KT 23/21 A3002 RMK A01 T02300214  RH  091%=      5-min Rain = 0
KCH1 171127Z 15004KT 23/21 A3003 RMK A01 T02300214  RH  091%=      5-min Rain = 0
KCH1 171128Z 14004KT 23/21 A3003 RMK A01 T02290214  RH  091%=      5-min Rain = 0
KCH1 171129Z 14004KT 23/21 A3003 RMK A01 T02290214  RH  091%=      5-min Rain = 0
KCH1 171130Z 14004KT 23/21 A3003 RMK A01 T02290214  RH  091%=      5-min Rain = 0
KCH1 171131Z 14004KT 23/21 A3003 RMK A01 T02290214  RH  091%=      5-min Rain = 0
KCH1 171132Z 14004KT 23/21 A3003 RMK A01 T02290214  RH  091%=      5-min Rain = 0
KCH1 171133Z 14004KT 23/21 A3003 RMK A01 T02290214  RH  091%=      5-min Rain = 0
KCH1 171134Z 14004KT 23/21 A3003 RMK A01 T02290214  RH  091%=      5-min Rain = 0
KCH1 171135Z 15004KT 23/21 A3003 RMK A01 T02290214  RH  091%=      5-min Rain = 0
KCH1 171136Z 15004KT 23/21 A3003 RMK A01 T02280214  RH  092%=      5-min Rain = 0
KCH1 171137Z 15004KT 23/21 A3003 RMK A01 T02280214  RH  092%=      5-min Rain = 0
KCH1 171138Z 15004KT 23/21 A3003 RMK A01 T02280214  RH  092%=      5-min Rain = 0
KCH1 171139Z 15004KT 23/21 A3003 RMK A01 T02280214  RH  092%=      5-min Rain = 0
KCH1 171140Z 15004KT 23/21 A3003 RMK A01 T02280214  RH  092%=      5-min Rain = 0
KCH1 171141Z 15005KT 23/21 A3003 RMK A01 T02280214  RH  092%=      5-min Rain = 0
KCH1 171142Z 15004KT 23/21 A3003 RMK A01 T02280214  RH  092%=      5-min Rain = 0
KCH1 171143Z 15005KT 23/21 A3003 RMK A01 T02280214  RH  092%=      5-min Rain = 0
KCH1 171144Z 16004KT 23/22 A3003 RMK A01 T02280215  RH  092%=      5-min Rain = 0
KCH1 171145Z 15005KT 23/22 A3003 RMK A01 T02280215  RH  092%=      5-min Rain = 0
KCH1 171146Z 16005KT 23/22 A3003 RMK A01 T02280215  RH  092%=      5-min Rain = 0
KCH1 171147Z 15005KT 23/22 A3003 RMK A01 T02280215  RH  092%=      5-min Rain = 0
KCH1 171148Z 15005KT 23/22 A3003 RMK A01 T02280215  RH  092%=      5-min Rain = 0
KCH1 171149Z 16004KT 23/22 A3003 RMK A01 T02290215  RH  092%=      5-min Rain = 0
KCH1 171150Z 16005KT 23/22 A3003 RMK A01 T02290215  RH  092%=      5-min Rain = 0
KCH1 171151Z 16005KT 23/22 A3003 RMK A01 T02290215  RH  092%=      5-min Rain = 0
KCH1 171152Z 16004KT 23/22 A3003 RMK A01 T02290215  RH  092%=      5-min Rain = 0
KCH1 171153Z 16004KT 23/22 A3003 RMK A01 T02290215  RH  092%=      5-min Rain = 0
KCH1 171154Z 16005KT 23/22 A3003 RMK A01 T02290215  RH  092%=      5-min Rain = 0
KCH1 171155Z 16005KT 23/22 A3003 RMK A01 T02290215  RH  092%=      5-min Rain = 0
KCH1 171156Z 16005KT 23/22 A3003 RMK A01 T02280215  RH  092%=      5-min Rain = 0
KCH1 171157Z 16005KT 23/22 A3003 RMK A01 T02280215  RH  092%=      5-min Rain = 0
KCH1 171158Z 16005KT 23/22 A3003 RMK A01 T02280215  RH  092%=      5-min Rain = 0
KCH1 171159Z 16005KT 23/22 A3003 RMK A01 T02280215  RH  092%=      5-min Rain = 0
KCH1 171200Z 16006KT 23/22 A3003 RMK A01 T02280216  RH  093%=      5-min Rain = 0
KCH1 171201Z 16005KT 23/22 A3003 RMK A01 T02280215  RH  092%=      5-min Rain = 0
KCH1 171202Z 16004KT 23/22 A3003 RMK A01 T02290216  RH  092%=      5-min Rain = 0
KCH1 171203Z 16005KT 23/22 A3003 RMK A01 T02290216  RH  092%=      5-min Rain = 0
KCH1 171204Z 15005KT 23/22 A3003 RMK A01 T02290216  RH  092%=      5-min Rain = 0
KCH1 171205Z 16005KT 23/22 A3003 RMK A01 T02290216  RH  092%=      5-min Rain = 0
KCH1 171206Z 15005KT 23/22 A3003 RMK A01 T02300216  RH  092%=      5-min Rain = 0
KCH1 171207Z 15004KT 23/22 A3003 RMK A01 T02300216  RH  092%=      5-min Rain = 0
KCH1 171208Z 15006KT 23/22 A3003 RMK A01 T02300216  RH  092%=      5-min Rain = 0
KCH1 171209Z 15005KT 23/22 A3003 RMK A01 T02300216  RH  092%=      5-min Rain = 0
KCH1 171210Z 16006KT 23/22 A3003 RMK A01 T02300216  RH  092%=      5-min Rain = 0
KCH1 171211Z 15005KT 23/22 A3003 RMK A01 T02310216  RH  092%=      5-min Rain = 0
KCH1 171212Z 16004KT 23/22 A3003 RMK A01 T02310217  RH  092%=      5-min Rain = 0
KCH1 171213Z 16005KT 23/22 A3003 RMK A01 T02310217  RH  092%=      5-min Rain = 0
KCH1 171214Z 16005KT 23/22 A3003 RMK A01 T02310217  RH  092%=      5-min Rain = 0
KCH1 171215Z 15005KT 23/22 A3003 RMK A01 T02320217  RH  091%=      5-min Rain = 0
KCH1 171216Z 15004KT 23/22 A3003 RMK A01 T02320217  RH  091%=      5-min Rain = 0
KCH1 171217Z 15004KT 23/22 A3003 RMK A01 T02320217  RH  091%=      5-min Rain = 0
KCH1 171218Z 15005KT 23/22 A3003 RMK A01 T02330217  RH  091%=      5-min Rain = 0
KCH1 171219Z 15005KT 23/22 A3003 RMK A01 T02330218  RH  091%=      5-min Rain = 0
KCH1 171220Z 15004KT 23/22 A3003 RMK A01 T02340218  RH  091%=      5-min Rain = 0
KCH1 171221Z 15004KT 23/22 A3003 RMK A01 T02340218  RH  091%=      5-min Rain = 0
KCH1 171222Z 15005KT 23/22 A3003 RMK A01 T02340218  RH  091%=      5-min Rain = 0
KCH1 171223Z 15004KT 23/22 A3003 RMK A01 T02340218  RH  091%=      5-min Rain = 0
KCH1 171224Z 15004KT 24/22 A3003 RMK A01 T02350218  RH  090%=      5-min Rain = 0
KCH1 171225Z 15005KT 24/22 A3003 RMK A01 T02350218  RH  090%=      5-min Rain = 0
KCH1 171226Z 15005KT 24/22 A3003 RMK A01 T02350218  RH  090%=      5-min Rain = 0
KCH1 171227Z 15004KT 24/22 A3003 RMK A01 T02360219  RH  090%=      5-min Rain = 0
KCH1 171228Z 15005KT 24/22 A3003 RMK A01 T02360218  RH  090%=      5-min Rain = 0
KCH1 171229Z 15005KT 24/22 A3004 RMK A01 T02360218  RH  090%=      5-min Rain = 0
KCH1 171230Z 16003KT 24/22 A3004 RMK A01 T02370219  RH  090%=      5-min Rain = 0
KCH1 171231Z 16004KT 24/22 A3004 RMK A01 T02370219  RH  090%=      5-min Rain = 0
KCH1 171232Z 15004KT 24/22 A3004 RMK A01 T02370219  RH  089%=      5-min Rain = 0
KCH1 171233Z 15004KT 24/22 A3004 RMK A01 T02370219  RH  089%=      5-min Rain = 0
KCH1 171234Z 16004KT 24/22 A3004 RMK A01 T02380219  RH  089%=      5-min Rain = 0
KCH1 171235Z 16004KT 24/22 A3004 RMK A01 T02380219  RH  089%=      5-min Rain = 0
KCH1 171236Z 15004KT 24/22 A3004 RMK A01 T02390219  RH  089%=      5-min Rain = 0
KCH1 171237Z 15004KT 24/22 A3004 RMK A01 T02390219  RH  089%=      5-min Rain = 0
KCH1 171238Z 15004KT 24/22 A3004 RMK A01 T02390219  RH  089%=      5-min Rain = 0
KCH1 171239Z 15004KT 24/22 A3004 RMK A01 T02400220  RH  089%=      5-min Rain = 0
KCH1 171240Z 15004KT 24/22 A3004 RMK A01 T02400220  RH  088%=      5-min Rain = 0
KCH1 171241Z 15005KT 24/22 A3004 RMK A01 T02410220  RH  088%=      5-min Rain = 0
KCH1 171242Z 16005KT 24/22 A3004 RMK A01 T02410220  RH  088%=      5-min Rain = 0
KCH1 171243Z 15005KT 24/22 A3004 RMK A01 T02420220  RH  088%=      5-min Rain = 0
KCH1 171244Z 15006KT 24/22 A3004 RMK A01 T02420220  RH  087%=      5-min Rain = 0
KCH1 171245Z 15006KT 24/22 A3004 RMK A01 T02420220  RH  087%=      5-min Rain = 0
KCH1 171246Z 16006KT 24/22 A3004 RMK A01 T02420220  RH  087%=      5-min Rain = 0
KCH1 171247Z 16005KT 24/22 A3004 RMK A01 T02430220  RH  087%=      5-min Rain = 0
KCH1 171248Z 16005KT 24/22 A3004 RMK A01 T02430220  RH  087%=      5-min Rain = 0
KCH1 171249Z 16006KT 24/22 A3004 RMK A01 T02430220  RH  087%=      5-min Rain = 0
KCH1 171250Z 16006KT 24/22 A3004 RMK A01 T02430220  RH  087%=      5-min Rain = 0
KCH1 171251Z 17006KT 24/22 A3004 RMK A01 T02430220  RH  087%=      5-min Rain = 0
KCH1 171252Z 16006KT 24/22 A3004 RMK A01 T02430220  RH  087%=      5-min Rain = 0
KCH1 171253Z 17007KT 24/22 A3004 RMK A01 T02440220  RH  086%=      5-min Rain = 0
KCH1 171254Z 16006KT 24/22 A3004 RMK A01 T02440220  RH  087%=      5-min Rain = 0
KCH1 171255Z 17007KT 24/22 A3004 RMK A01 T02440220  RH  087%=      5-min Rain = 0
KCH1 171256Z 17007KT 24/22 A3004 RMK A01 T02440220  RH  087%=      5-min Rain = 0
KCH1 171257Z 17008KT 24/22 A3004 RMK A01 T02440220  RH  086%=      5-min Rain = 0
KCH1 171258Z 17007KT 24/22 A3004 RMK A01 T02440220  RH  086%=      5-min Rain = 0
KCH1 171259Z 17007KT 24/22 A3004 RMK A01 T02440220  RH  086%=      5-min Rain = 0
KCH1 171300Z 16005KT 25/22 A3004 RMK A01 T02450221  RH  086%=      5-min Rain = 0
KCH1 171301Z 17009KT 25/22 A3004 RMK A01 T02450220  RH  086%=      5-min Rain = 0
KCH1 171302Z 17006KT 25/22 A3004 RMK A01 T02460220  RH  086%=      5-min Rain = 0
KCH1 171303Z 17007KT 25/22 A3004 RMK A01 T02460220  RH  086%=      5-min Rain = 0
KCH1 171304Z 17007KT 25/22 A3004 RMK A01 T02460220  RH  086%=      5-min Rain = 0
KCH1 171305Z 17006KT 25/22 A3004 RMK A01 T02470221  RH  086%=      5-min Rain = 0
KCH1 171306Z 17007KT 25/22 A3004 RMK A01 T02480221  RH  085%=      5-min Rain = 0
KCH1 171307Z 17007KT 25/22 A3004 RMK A01 T02480221  RH  085%=      5-min Rain = 0
KCH1 171308Z 17008KT 25/22 A3004 RMK A01 T02480221  RH  085%=      5-min Rain = 0
KCH1 171309Z 17007KT 25/22 A3004 RMK A01 T02490221  RH  085%=      5-min Rain = 0
KCH1 171310Z 17008KT 25/22 A3004 RMK A01 T02490221  RH  084%=      5-min Rain = 0
KCH1 171311Z 17008KT 25/22 A3004 RMK A01 T02490221  RH  084%=      5-min Rain = 0
KCH1 171312Z 17008KT 25/22 A3004 RMK A01 T02500221  RH  084%=      5-min Rain = 0
KCH1 171313Z 18007KT 25/22 A3004 RMK A01 T02500222  RH  084%=      5-min Rain = 0
KCH1 171314Z 16006KT 25/22 A3004 RMK A01 T02500222  RH  084%=      5-min Rain = 0
KCH1 171315Z 16008KT 25/22 A3005 RMK A01 T02520222  RH  084%=      5-min Rain = 0
KCH1 171316Z 17009KT 25/22 A3004 RMK A01 T02530221  RH  082%=      5-min Rain = 0
KCH1 171317Z 17007KT 25/22 A3005 RMK A01 T02530221  RH  082%=      5-min Rain = 0
KCH1 171318Z 17007KT 25/22 A3005 RMK A01 T02530222  RH  083%=      5-min Rain = 0
KCH1 171319Z 17008KT 25/22 A3005 RMK A01 T02540221  RH  082%=      5-min Rain = 0
KCH1 171320Z 17009KT 25/22 A3005 RMK A01 T02540220  RH  081%=      5-min Rain = 0
KCH1 171321Z 16009KT 25/22 A3005 RMK A01 T02540220  RH  081%=      5-min Rain = 0
KCH1 171322Z 17006KT 25/22 A3005 RMK A01 T02540221  RH  082%=      5-min Rain = 0
KCH1 171323Z 19009KT 26/22 A3005 RMK A01 T02550221  RH  081%=      5-min Rain = 0
KCH1 171324Z 18009KT 26/22 A3005 RMK A01 T02550220  RH  081%=      5-min Rain = 0
KCH1 171325Z 19010KT 26/22 A3005 RMK A01 T02560220  RH  081%=      5-min Rain = 0
KCH1 171326Z 17009KT 26/22 A3005 RMK A01 T02550219  RH  080%=      5-min Rain = 0
KCH1 171327Z 19008KT 26/22 A3005 RMK A01 T02560219  RH  080%=      5-min Rain = 0
KCH1 171328Z 19009KT 26/22 A3005 RMK A01 T02560219  RH  080%=      5-min Rain = 0
KCH1 171329Z 19009KT 26/22 A3005 RMK A01 T02560218  RH  079%=      5-min Rain = 0
KCH1 171330Z 19009KT 26/22 A3005 RMK A01 T02560218  RH  080%=      5-min Rain = 0
KCH1 171331Z 19009KT 26/22 A3005 RMK A01 T02560219  RH  080%=      5-min Rain = 0
KCH1 171332Z 19011KT 26/22 A3005 RMK A01 T02570217  RH  079%=      5-min Rain = 0
KCH1 171333Z 18009KT 26/22 A3005 RMK A01 T02560217  RH  079%=      5-min Rain = 0
KCH1 171334Z 18009KT 26/22 A3005 RMK A01 T02570217  RH  079%=      5-min Rain = 0
KCH1 171335Z 19010KT 26/22 A3005 RMK A01 T02570217  RH  079%=      5-min Rain = 0
KCH1 171336Z 18011KT 26/22 A3005 RMK A01 T02570217  RH  079%=      5-min Rain = 0
KCH1 171337Z 20008KT 26/22 A3006 RMK A01 T02570217  RH  079%=      5-min Rain = 0
KCH1 171338Z 20006KT 26/22 A3006 RMK A01 T02570218  RH  079%=      5-min Rain = 0
KCH1 171339Z 18006KT 26/22 A3006 RMK A01 T02580219  RH  079%=      5-min Rain = 0
KCH1 171340Z 19011KT 26/22 A3006 RMK A01 T02590218  RH  078%=      5-min Rain = 0
KCH1 171341Z 19010KT 26/22 A3006 RMK A01 T02590217  RH  078%=      5-min Rain = 0
KCH1 171342Z 19011KT 26/22 A3006 RMK A01 T02590217  RH  078%=      5-min Rain = 0
KCH1 171343Z 20009KT 26/22 A3006 RMK A01 T02590217  RH  078%=      5-min Rain = 0
KCH1 171344Z 20006KT 26/22 A3006 RMK A01 T02580217  RH  078%=      5-min Rain = 0
KCH1 171345Z 18009KT 26/22 A3006 RMK A01 T02590217  RH  078%=      5-min Rain = 0
KCH1 171346Z 18009KT 26/22 A3006 RMK A01 T02590216  RH  077%=      5-min Rain = 0
KCH1 171347Z 19010KT 26/22 A3006 RMK A01 T02590217  RH  078%=      5-min Rain = 0
KCH1 171348Z 17009KT 26/22 A3006 RMK A01 T02600217  RH  077%=      5-min Rain = 0
KCH1 171349Z 18007KT 26/22 A3006 RMK A01 T02610217  RH  077%=      5-min Rain = 0
KCH1 171350Z 19010KT 26/22 A3006 RMK A01 T02610216  RH  076%=      5-min Rain = 0
KCH1 171351Z 20008KT 26/22 A3006 RMK A01 T02610217  RH  077%=      5-min Rain = 0
KCH1 171352Z 19008KT 26/22 A3006 RMK A01 T02610216  RH  076%=      5-min Rain = 0
KCH1 171353Z 18010KT 26/22 A3006 RMK A01 T02610217  RH  077%=      5-min Rain = 0
KCH1 171354Z 18010KT 26/22 A3006 RMK A01 T02610216  RH  076%=      5-min Rain = 0
KCH1 171355Z 19009KT 26/22 A3006 RMK A01 T02610216  RH  076%=      5-min Rain = 0
KCH1 171356Z 18009KT 26/22 A3006 RMK A01 T02610216  RH  076%=      5-min Rain = 0
KCH1 171357Z 18009KT 26/22 A3006 RMK A01 T02620216  RH  076%=      5-min Rain = 0
KCH1 171358Z 19007KT 26/22 A3006 RMK A01 T02620216  RH  076%=      5-min Rain = 0
KCH1 171359Z 18006KT 26/22 A3006 RMK A01 T02630217  RH  076%=      5-min Rain = 0
KCH1 171400Z 19006KT 26/22 A3006 RMK A01 T02640218  RH  075%=      5-min Rain = 0
KCH1 171401Z 18005KT 27/22 A3006 RMK A01 T02650216  RH  074%=      5-min Rain = 0
KCH1 171402Z 18009KT 27/22 A3006 RMK A01 T02660216  RH  074%=      5-min Rain = 0
KCH1 171403Z 18008KT 27/22 A3006 RMK A01 T02650215  RH  074%=      5-min Rain = 0
KCH1 171404Z 18009KT 27/22 A3006 RMK A01 T02650216  RH  075%=      5-min Rain = 0
KCH1 171405Z 17009KT 27/22 A3006 RMK A01 T02650216  RH  075%=      5-min Rain = 0
KCH1 171406Z 18008KT 27/22 A3006 RMK A01 T02650216  RH  074%=      5-min Rain = 0
KCH1 171407Z 18011KT 26/21 A3006 RMK A01 T02640214  RH  074%=      5-min Rain = 0
KCH1 171408Z 18010KT 26/21 A3006 RMK A01 T02640213  RH  074%=      5-min Rain = 0
KCH1 171409Z 19012KT 26/21 A3006 RMK A01 T02640213  RH  074%=      5-min Rain = 0
KCH1 171410Z 19010KT 26/21 A3006 RMK A01 T02640213  RH  074%=      5-min Rain = 0
KCH1 171411Z 19008KT 26/21 A3006 RMK A01 T02630213  RH  074%=      5-min Rain = 0
KCH1 171412Z 18008KT 26/21 A3006 RMK A01 T02630214  RH  074%=      5-min Rain = 0
KCH1 171413Z 20008KT 27/22 A3006 RMK A01 T02650215  RH  074%=      5-min Rain = 0
KCH1 171414Z 18009KT 27/22 A3006 RMK A01 T02660215  RH  073%=      5-min Rain = 0
KCH1 171415Z 18008KT 27/22 A3006 RMK A01 T02670215  RH  073%=      5-min Rain = 0
KCH1 171416Z 19008KT 27/22 A3006 RMK A01 T02690216  RH  073%=      5-min Rain = 0
KCH1 171417Z 18010KT 27/22 A3006 RMK A01 T02700216  RH  072%=      5-min Rain = 0
KCH1 171418Z 18009KT 27/22 A3006 RMK A01 T02700215  RH  072%=      5-min Rain = 0
KCH1 171419Z 17010KT 27/22 A3006 RMK A01 T02700215  RH  072%=      5-min Rain = 0
KCH1 171420Z 19011G16KT 27/21 A3006 RMK A01 T02700210  RH  070%=      5-min Rain = 0
KCH1 171421Z 18010KT 27/21 A3006 RMK A01 T02690211  RH  071%=      5-min Rain = 0
KCH1 171422Z 18009KT 27/21 A3006 RMK A01 T02690213  RH  071%=      5-min Rain = 0
KCH1 171423Z 19009KT 27/21 A3006 RMK A01 T02700212  RH  070%=      5-min Rain = 0
KCH1 171424Z 18010KT 27/21 A3006 RMK A01 T02700212  RH  070%=      5-min Rain = 0
KCH1 171425Z 18010KT 27/21 A3006 RMK A01 T02710211  RH  070%=      5-min Rain = 0
KCH1 171426Z 18010KT 27/21 A3006 RMK A01 T02710211  RH  070%=      5-min Rain = 0
KCH1 171427Z 18012KT 27/21 A3006 RMK A01 T02700211  RH  070%=      5-min Rain = 0
KCH1 171428Z 19012KT 27/21 A3006 RMK A01 T02680211  RH  071%=      5-min Rain = 0
KCH1 171429Z 18008KT 27/21 A3006 RMK A01 T02680211  RH  071%=      5-min Rain = 0
KCH1 171430Z 18009KT 27/21 A3006 RMK A01 T02690211  RH  071%=      5-min Rain = 0
KCH1 171431Z 18009KT 27/21 A3006 RMK A01 T02690211  RH  070%=      5-min Rain = 0
KCH1 171432Z 17007KT 27/21 A3006 RMK A01 T02690211  RH  070%=      5-min Rain = 0
KCH1 171433Z 18012KT 27/21 A3006 RMK A01 T02710211  RH  070%=      5-min Rain = 0
KCH1 171434Z 17012G17KT 27/21 A3006 RMK A01 T02720208  RH  068%=      5-min Rain = 0
KCH1 171435Z 17012KT 27/21 A3006 RMK A01 T02710207  RH  068%=      5-min Rain = 0
KCH1 171436Z 18013KT 27/21 A3006 RMK A01 T02700207  RH  068%=      5-min Rain = 0
KCH1 171437Z 19011KT 27/21 A3006 RMK A01 T02710205  RH  067%=      5-min Rain = 0
KCH1 171438Z 19010KT 27/21 A3006 RMK A01 T02710207  RH  068%=      5-min Rain = 0
KCH1 171439Z 18012KT 27/21 A3006 RMK A01 T02710207  RH  068%=      5-min Rain = 0
KCH1 171440Z 18010G15KT 27/21 A3006 RMK A01 T02710207  RH  068%=      5-min Rain = 0
KCH1 171441Z 18013KT 27/21 A3006 RMK A01 T02710208  RH  068%=      5-min Rain = 0
KCH1 171442Z 18012KT 27/21 A3006 RMK A01 T02720207  RH  068%=      5-min Rain = 0
KCH1 171443Z 18010KT 27/21 A3006 RMK A01 T02720208  RH  068%=      5-min Rain = 0
KCH1 171444Z 18010KT 27/21 A3006 RMK A01 T02730208  RH  068%=      5-min Rain = 0
KCH1 171445Z 18010KT 27/21 A3006 RMK A01 T02730209  RH  068%=      5-min Rain = 0
KCH1 171446Z 18010KT 27/21 A3006 RMK A01 T02730209  RH  068%=      5-min Rain = 0
KCH1 171447Z 17011KT 27/21 A3006 RMK A01 T02740211  RH  068%=      5-min Rain = 0
KCH1 171448Z 18009KT 27/21 A3006 RMK A01 T02740210  RH  068%=      5-min Rain = 0
KCH1 171449Z 18009KT 27/21 A3006 RMK A01 T02740210  RH  068%=      5-min Rain = 0
KCH1 171450Z 16011KT 27/21 A3006 RMK A01 T02740210  RH  068%=      5-min Rain = 0
KCH1 171451Z 17010KT 28/21 A3006 RMK A01 T02750211  RH  068%=      5-min Rain = 0
KCH1 171452Z 19009KT 28/21 A3006 RMK A01 T02750210  RH  068%=      5-min Rain = 0
KCH1 171453Z 17009KT 28/21 A3005 RMK A01 T02750211  RH  068%=      5-min Rain = 0
KCH1 171454Z 17008KT 28/21 A3005 RMK A01 T02760212  RH  068%=      5-min Rain = 0
KCH1 171455Z 17012KT 28/21 A3005 RMK A01 T02780211  RH  067%=      5-min Rain = 0
KCH1 171456Z 18010KT 28/21 A3005 RMK A01 T02780209  RH  066%=      5-min Rain = 0
KCH1 171457Z 17013KT 28/21 A3005 RMK A01 T02760210  RH  067%=      5-min Rain = 0
KCH1 171458Z 19010KT 28/21 A3005 RMK A01 T02770209  RH  067%=      5-min Rain = 0
KCH1 171459Z 17011KT 28/21 A3005 RMK A01 T02780209  RH  066%=      5-min Rain = 0
KCH1 171500Z 17012KT 28/21 A3005 RMK A01 T02780209  RH  066%=      5-min Rain = 0
KCH1 171501Z 17010KT 28/21 A3005 RMK A01 T02770209  RH  066%=      5-min Rain = 0
KCH1 171502Z 18013KT 28/21 A3005 RMK A01 T02770209  RH  066%=      5-min Rain = 0
KCH1 171503Z 18014KT 28/21 A3005 RMK A01 T02770208  RH  066%=      5-min Rain = 0
KCH1 171504Z 18010KT 28/21 A3005 RMK A01 T02770209  RH  066%=      5-min Rain = 0
KCH1 171505Z 19013G18KT 28/21 A3005 RMK A01 T02780209  RH  066%=      5-min Rain = 0
KCH1 171506Z 19012KT 28/21 A3005 RMK A01 T02790205  RH  064%=      5-min Rain = 0
KCH1 171507Z 19011KT 28/21 A3005 RMK A01 T02770206  RH  065%=      5-min Rain = 0
KCH1 171508Z 19013KT 28/21 A3005 RMK A01 T02770206  RH  065%=      5-min Rain = 0
KCH1 171509Z 18010KT 28/21 A3005 RMK A01 T02770207  RH  066%=      5-min Rain = 0
KCH1 171510Z 17010KT 28/21 A3005 RMK A01 T02780209  RH  066%=      5-min Rain = 0
KCH1 171511Z 17010KT 28/21 A3005 RMK A01 T02790209  RH  066%=      5-min Rain = 0
KCH1 171512Z 18011G17KT 28/21 A3005 RMK A01 T02780210  RH  066%=      5-min Rain = 0
KCH1 171513Z 17012KT 28/21 A3005 RMK A01 T02790208  RH  065%=      5-min Rain = 0
KCH1 171514Z 18009KT 28/21 A3005 RMK A01 T02790209  RH  066%=      5-min Rain = 0
KCH1 171515Z 18008KT 28/21 A3005 RMK A01 T02790210  RH  066%=      5-min Rain = 0
KCH1 171516Z 20011KT 28/21 A3005 RMK A01 T02810210  RH  065%=      5-min Rain = 0
KCH1 171517Z 20009KT 28/21 A3005 RMK A01 T02820208  RH  064%=      5-min Rain = 0
KCH1 171518Z 20009KT 28/21 A3005 RMK A01 T02820209  RH  065%=      5-min Rain = 0
KCH1 171519Z 19010KT 28/21 A3005 RMK A01 T02810209  RH  065%=      5-min Rain = 0
KCH1 171520Z 20010KT 28/21 A3005 RMK A01 T02820209  RH  065%=      5-min Rain = 0
KCH1 171521Z 19010KT 28/21 A3005 RMK A01 T02820207  RH  064%=      5-min Rain = 0
KCH1 171522Z 20009KT 28/21 A3005 RMK A01 T02820209  RH  065%=      5-min Rain = 0
KCH1 171523Z 18011KT 28/21 A3005 RMK A01 T02830209  RH  064%=      5-min Rain = 0
KCH1 171524Z 19012KT 28/21 A3005 RMK A01 T02840207  RH  063%=      5-min Rain = 0
KCH1 171525Z 19009KT 28/21 A3006 RMK A01 T02840208  RH  063%=      5-min Rain = 0
KCH1 171526Z 19011KT 28/21 A3005 RMK A01 T02840207  RH  063%=      5-min Rain = 0
KCH1 171527Z 19014KT 28/21 A3005 RMK A01 T02840207  RH  063%=      5-min Rain = 0
KCH1 171528Z 19011G16KT 28/21 A3005 RMK A01 T02830207  RH  063%=      5-min Rain = 0
KCH1 171529Z 20007KT 28/21 A3006 RMK A01 T02830208  RH  064%=      5-min Rain = 0
KCH1 171530Z 19008KT 29/21 A3006 RMK A01 T02860209  RH  063%=      5-min Rain = 0
KCH1 171531Z 19007G12KT 29/21 A3006 RMK A01 T02870211  RH  063%=      5-min Rain = 0
KCH1 171532Z 19007KT 29/21 A3006 RMK A01 T02890211  RH  063%=      5-min Rain = 0
KCH1 171533Z 17006KT 29/21 A3006 RMK A01 T02920214  RH  063%=      5-min Rain = 0
KCH1 171534Z 18008G13KT 29/21 A3006 RMK A01 T02940213  RH  062%=      5-min Rain = 0
KCH1 171535Z 19009KT 29/21 A3006 RMK A01 T02940211  RH  061%=      5-min Rain = 0
KCH1 171536Z 18010KT 29/21 A3005 RMK A01 T02920212  RH  062%=      5-min Rain = 0
KCH1 171537Z 19010KT 29/21 A3006 RMK A01 T02910211  RH  062%=      5-min Rain = 0
KCH1 171538Z 18011KT 29/21 A3006 RMK A01 T02910212  RH  062%=      5-min Rain = 0
KCH1 171539Z 18009KT 29/21 A3006 RMK A01 T02910211  RH  062%=      5-min Rain = 0
KCH1 171540Z 18008KT 29/21 A3006 RMK A01 T02910211  RH  062%=      5-min Rain = 0
KCH1 171541Z 19008KT 29/21 A3006 RMK A01 T02910210  RH  062%=      5-min Rain = 0
KCH1 171542Z 19007KT 29/21 A3006 RMK A01 T02900211  RH  062%=      5-min Rain = 0
KCH1 171543Z 19008G13KT 29/21 A3006 RMK A01 T02910212  RH  063%=      5-min Rain = 0
KCH1 171544Z 20009KT 29/21 A3006 RMK A01 T02930212  RH  062%=      5-min Rain = 0
KCH1 171545Z 19014KT 29/21 A3005 RMK A01 T02930210  RH  061%=      5-min Rain = 0
KCH1 171546Z 19012KT 29/21 A3005 RMK A01 T02890208  RH  061%=      5-min Rain = 0
KCH1 171547Z 20012KT 29/21 A3005 RMK A01 T02860208  RH  062%=      5-min Rain = 0
KCH1 171548Z 19009KT 29/21 A3006 RMK A01 T02870210  RH  063%=      5-min Rain = 0
KCH1 171549Z 19011G17KT 29/21 A3006 RMK A01 T02890209  RH  062%=      5-min Rain = 0
KCH1 171550Z 19011KT 29/21 A3006 RMK A01 T02880208  RH  062%=      5-min Rain = 0
KCH1 171551Z 19010KT 29/21 A3006 RMK A01 T02870208  RH  062%=      5-min Rain = 0
KCH1 171552Z 19010G17KT 29/21 A3006 RMK A01 T02870210  RH  063%=      5-min Rain = 0
KCH1 171553Z 17014KT 29/21 A3006 RMK A01 T02890207  RH  061%=      5-min Rain = 0
KCH1 171554Z 17011KT 29/21 A3006 RMK A01 T02890207  RH  061%=      5-min Rain = 0
KCH1 171555Z 18009KT 29/21 A3006 RMK A01 T02900210  RH  062%=      5-min Rain = 0
KCH1 171556Z 19010KT 29/21 A3006 RMK A01 T02920209  RH  061%=      5-min Rain = 0
KCH1 171557Z 21006KT 29/21 A3006 RMK A01 T02930212  RH  062%=      5-min Rain = 0
KCH1 171558Z 21007KT 30/21 A3006 RMK A01 T02960211  RH  061%=      5-min Rain = 0
KCH1 171559Z 21010G15KT 30/21 A3006 RMK A01 T02960211  RH  060%=      5-min Rain = 0
KCH1 171600Z 21010KT 30/21 A3006 RMK A01 T02950209  RH  060%=      5-min Rain = 0
KCH1 171601Z 19010KT 29/21 A3006 RMK A01 T02940210  RH  061%=      5-min Rain = 0
KCH1 171602Z 20007KT 29/21 A3006 RMK A01 T02940211  RH  061%=      5-min Rain = 0
KCH1 171603Z 19004KT 30/21 A3006 RMK A01 T02950213  RH  061%=      5-min Rain = 0
KCH1 171604Z 19009G14KT 30/21 A3006 RMK A01 T02980214  RH  061%=      5-min Rain = 0
KCH1 171605Z 19011KT 30/21 A3006 RMK A01 T02980210  RH  059%=      5-min Rain = 0
KCH1 171606Z 20011G16KT 30/21 A3006 RMK A01 T02960210  RH  060%=      5-min Rain = 0
KCH1 171607Z 20009KT 29/21 A3006 RMK A01 T02940209  RH  060%=      5-min Rain = 0
KCH1 171608Z 19009KT 29/21 A3006 RMK A01 T02930210  RH  061%=      5-min Rain = 0
KCH1 171609Z 22009KT 29/21 A3006 RMK A01 T02910209  RH  061%=      5-min Rain = 0
KCH1 171610Z 22010KT 29/21 A3006 RMK A01 T02900210  RH  062%=      5-min Rain = 0
KCH1 171611Z 21007G12KT 29/21 A3006 RMK A01 T02880210  RH  062%=      5-min Rain = 0
KCH1 171612Z 19010G15KT 29/21 A3006 RMK A01 T02870210  RH  063%=      5-min Rain = 0
KCH1 171613Z 18012KT 29/21 A3006 RMK A01 T02890210  RH  062%=      5-min Rain = 0
KCH1 171614Z 18006KT 29/21 A3006 RMK A01 T02900210  RH  062%=      5-min Rain = 0
KCH1 171615Z 18010KT 29/21 A3006 RMK A01 T02910211  RH  062%=      5-min Rain = 0
KCH1 171616Z 18015G22KT 29/21 A3006 RMK A01 T02930210  RH  061%=      5-min Rain = 0
KCH1 171617Z 21012G17KT 29/21 A3006 RMK A01 T02940210  RH  061%=      5-min Rain = 0
KCH1 171618Z 20012KT 29/21 A3006 RMK A01 T02940211  RH  061%=      5-min Rain = 0
KCH1 171619Z 19008KT 29/21 A3006 RMK A01 T02930211  RH  061%=      5-min Rain = 0
KCH1 171620Z 21010KT 29/21 A3006 RMK A01 T02930211  RH  061%=      5-min Rain = 0
KCH1 171621Z 21012KT 29/21 A3007 RMK A01 T02910210  RH  061%=      5-min Rain = 0
KCH1 171622Z 20011KT 29/21 A3006 RMK A01 T02890209  RH  062%=      5-min Rain = 0
KCH1 171623Z 22010KT 29/21 A3006 RMK A01 T02870210  RH  063%=      5-min Rain = 0
KCH1 171624Z 23006KT 29/21 A3006 RMK A01 T02870210  RH  063%=      5-min Rain = 0
KCH1 171625Z 19008KT 29/21 A3006 RMK A01 T02870212  RH  064%=      5-min Rain = 0
KCH1 171626Z 20008G15KT 29/21 A3007 RMK A01 T02900213  RH  063%=      5-min Rain = 0
KCH1 171627Z 21010G15KT 29/21 A3007 RMK A01 T02930211  RH  062%=      5-min Rain = 0
KCH1 171628Z 19010KT 29/21 A3006 RMK A01 T02930211  RH  061%=      5-min Rain = 0
KCH1 171629Z 20009G14KT 29/21 A3006 RMK A01 T02920212  RH  062%=      5-min Rain = 0
KCH1 171630Z 17010KT 29/21 A3006 RMK A01 T02930212  RH  061%=      5-min Rain = 0
KCH1 171631Z 19010KT 30/21 A3006 RMK A01 T02950211  RH  061%=      5-min Rain = 0
KCH1 171632Z 18012KT 29/21 A3006 RMK A01 T02940211  RH  061%=      5-min Rain = 0
KCH1 171633Z 19011G16KT 30/21 A3007 RMK A01 T02950212  RH  061%=      5-min Rain = 0
KCH1 171634Z 19011KT 30/21 A3007 RMK A01 T02980211  RH  059%=      5-min Rain = 0
KCH1 171635Z 18011KT 30/21 A3007 RMK A01 T02990213  RH  060%=      5-min Rain = 0
KCH1 171636Z 17011KT 30/21 A3007 RMK A01 T02990212  RH  060%=      5-min Rain = 0
KCH1 171637Z 17013KT 30/21 A3007 RMK A01 T03000213  RH  060%=      5-min Rain = 0
KCH1 171638Z 18010KT 30/21 A3007 RMK A01 T03010212  RH  059%=      5-min Rain = 0
KCH1 171639Z 19008G13KT 30/21 A3007 RMK A01 T03000214  RH  060%=      5-min Rain = 0
KCH1 171640Z 17009G14KT 30/22 A3007 RMK A01 T03020215  RH  060%=      5-min Rain = 0
KCH1 171641Z 16013KT 30/21 A3007 RMK A01 T03030213  RH  059%=      5-min Rain = 0
KCH1 171642Z 18013KT 30/21 A3007 RMK A01 T03020214  RH  059%=      5-min Rain = 0
KCH1 171643Z 18007KT 30/21 A3006 RMK A01 T03020214  RH  059%=      5-min Rain = 0
KCH1 171644Z 19009G15KT 30/22 A3006 RMK A01 T03030216  RH  060%=      5-min Rain = 0
KCH1 171645Z 18010KT 30/21 A3007 RMK A01 T03040214  RH  059%=      5-min Rain = 0
KCH1 171646Z 18006KT 30/22 A3007 RMK A01 T03040219  RH  060%=      5-min Rain = 0
KCH1 171647Z 18010KT 31/22 A3007 RMK A01 T03070215  RH  058%=      5-min Rain = 0
KCH1 171648Z 20009KT 31/21 A3007 RMK A01 T03050214  RH  058%=      5-min Rain = 0
KCH1 171649Z 18014KT 30/21 A3007 RMK A01 T03030214  RH  059%=      5-min Rain = 0
KCH1 171650Z 18010KT 30/21 A3007 RMK A01 T03020214  RH  059%=      5-min Rain = 0
KCH1 171651Z 19009KT 30/22 A3007 RMK A01 T03030215  RH  059%=      5-min Rain = 0
KCH1 171652Z 20007KT 30/22 A3007 RMK A01 T03040215  RH  059%=      5-min Rain = 0
KCH1 171653Z 19008KT 30/22 A3007 RMK A01 T03040217  RH  060%=      5-min Rain = 0
KCH1 171654Z 21008KT 30/22 A3007 RMK A01 T03040215  RH  059%=      5-min Rain = 0
KCH1 171655Z 20008KT 30/22 A3007 RMK A01 T03030216  RH  060%=      5-min Rain = 0
KCH1 171656Z 20008KT 30/22 A3007 RMK A01 T03030217  RH  060%=      5-min Rain = 0
KCH1 171657Z 19006KT 31/22 A3007 RMK A01 T03050217  RH  059%=      5-min Rain = 0
KCH1 171658Z 19007KT 31/22 A3007 RMK A01 T03060216  RH  059%=      5-min Rain = 0
KCH1 171659Z 20010KT 31/22 A3007 RMK A01 T03060217  RH  059%=      5-min Rain = 0
KCH1 171700Z 20010KT 30/21 A3007 RMK A01 T03040213  RH  058%=      5-min Rain = 0
KCH1 171701Z 20009KT 30/21 A3007 RMK A01 T03000211  RH  059%=      5-min Rain = 0
KCH1 171702Z 20007G12KT 30/21 A3007 RMK A01 T02980213  RH  060%=      5-min Rain = 0
KCH1 171703Z 19006KT 30/22 A3007 RMK A01 T02990216  RH  061%=      5-min Rain = 0
KCH1 171704Z 20011KT 30/22 A3007 RMK A01 T03030216  RH  060%=      5-min Rain = 0
KCH1 171705Z 19011KT 30/22 A3007 RMK A01 T03040215  RH  059%=      5-min Rain = 0
KCH1 171706Z 19009KT 30/21 A3007 RMK A01 T03030214  RH  059%=      5-min Rain = 0
KCH1 171707Z 19010KT 30/21 A3007 RMK A01 T03000212  RH  059%=      5-min Rain = 0
KCH1 171708Z 21010KT 30/21 A3007 RMK A01 T02980210  RH  059%=      5-min Rain = 0
KCH1 171709Z 22009KT 30/21 A3007 RMK A01 T02960210  RH  060%=      5-min Rain = 0
KCH1 171710Z 21009KT 30/21 A3007 RMK A01 T02950210  RH  060%=      5-min Rain = 0
KCH1 171711Z 22008KT 30/21 A3007 RMK A01 T02970211  RH  060%=      5-min Rain = 0
KCH1 171712Z 21008KT 30/21 A3007 RMK A01 T02980211  RH  060%=      5-min Rain = 0
KCH1 171713Z 20007KT 30/21 A3007 RMK A01 T02960211  RH  060%=      5-min Rain = 0
KCH1 171714Z 21007KT 29/21 A3007 RMK A01 T02940211  RH  061%=      5-min Rain = 0
KCH1 171715Z 21007KT 29/21 A3006 RMK A01 T02920211  RH  062%=      5-min Rain = 0
KCH1 171716Z 22007KT 29/21 A3006 RMK A01 T02910212  RH  062%=      5-min Rain = 0
KCH1 171717Z 22007KT 29/21 A3006 RMK A01 T02940214  RH  062%=      5-min Rain = 0
KCH1 171718Z 24006KT 30/21 A3006 RMK A01 T02990211  RH  059%=      5-min Rain = 0
KCH1 171719Z 20008KT 30/21 A3006 RMK A01 T03020214  RH  059%=      5-min Rain = 0
KCH1 171720Z 21008KT 31/21 A3006 RMK A01 T03060214  RH  058%=      5-min Rain = 0
KCH1 171721Z 20010G15KT 31/22 A3006 RMK A01 T03100215  RH  057%=      5-min Rain = 0
KCH1 171722Z 19011KT 31/21 A3006 RMK A01 T03110212  RH  056%=      5-min Rain = 0
KCH1 171723Z 19008KT 31/21 A3006 RMK A01 T03080212  RH  057%=      5-min Rain = 0
KCH1 171724Z 19012KT 31/21 A3006 RMK A01 T03080212  RH  057%=      5-min Rain = 0
KCH1 171725Z 18011KT 31/21 A3006 RMK A01 T03090211  RH  056%=      5-min Rain = 0
KCH1 171726Z 19009KT 31/21 A3006 RMK A01 T03070211  RH  056%=      5-min Rain = 0
KCH1 171727Z 19007KT 31/21 A3006 RMK A01 T03060213  RH  057%=      5-min Rain = 0
KCH1 171728Z 19009KT 31/22 A3006 RMK A01 T03100215  RH  057%=      5-min Rain = 0
KCH1 171729Z 20009KT 31/22 A3006 RMK A01 T03120215  RH  056%=      5-min Rain = 0
KCH1 171730Z 22008KT 31/22 A3006 RMK A01 T03140216  RH  056%=      5-min Rain = 0
KCH1 171731Z 22010KT 31/21 A3006 RMK A01 T03130213  RH  055%=      5-min Rain = 0
KCH1 171732Z 19007KT 31/21 A3006 RMK A01 T03080211  RH  056%=      5-min Rain = 0
KCH1 171733Z 20009KT 31/21 A3006 RMK A01 T03060212  RH  057%=      5-min Rain = 0
KCH1 171734Z 20007KT 31/21 A3006 RMK A01 T03060214  RH  058%=      5-min Rain = 0
KCH1 171735Z 20007KT 31/22 A3006 RMK A01 T03090215  RH  057%=      5-min Rain = 0
KCH1 171736Z 19010KT 31/21 A3006 RMK A01 T03100212  RH  056%=      5-min Rain = 0
KCH1 171737Z 18008KT 31/21 A3006 RMK A01 T03080212  RH  057%=      5-min Rain = 0
KCH1 171738Z 21009G14KT 31/21 A3006 RMK A01 T03070214  RH  057%=      5-min Rain = 0
KCH1 171739Z 20010KT 31/21 A3006 RMK A01 T03090214  RH  057%=      5-min Rain = 0
KCH1 171740Z 20008KT 31/21 A3006 RMK A01 T03100213  RH  056%=      5-min Rain = 0
KCH1 171741Z 19011KT 31/21 A3006 RMK A01 T03080211  RH  056%=      5-min Rain = 0
KCH1 171742Z 22009KT 31/21 A3006 RMK A01 T03060212  RH  057%=      5-min Rain = 0
KCH1 171743Z 21009KT 31/21 A3006 RMK A01 T03070211  RH  056%=      5-min Rain = 0
KCH1 171744Z 21009KT 31/21 A3006 RMK A01 T03080211  RH  056%=      5-min Rain = 0
KCH1 171745Z 20009KT 31/21 A3006 RMK A01 T03080212  RH  056%=      5-min Rain = 0
KCH1 171746Z 19007KT 31/21 A3006 RMK A01 T03070212  RH  057%=      5-min Rain = 0
KCH1 171747Z 20006KT 31/21 A3006 RMK A01 T03070214  RH  058%=      5-min Rain = 0
KCH1 171748Z 23010KT 31/21 A3006 RMK A01 T03070214  RH  058%=      5-min Rain = 0
KCH1 171749Z 23009KT 31/21 A3006 RMK A01 T03060213  RH  057%=      5-min Rain = 0
KCH1 171750Z 22008G13KT 30/21 A3006 RMK A01 T03040213  RH  058%=      5-min Rain = 0
KCH1 171751Z 23009KT 30/21 A3006 RMK A01 T03040213  RH  058%=      5-min Rain = 0
KCH1 171752Z 20009KT 31/21 A3006 RMK A01 T03060214  RH  058%=      5-min Rain = 0
KCH1 171753Z 21010G17KT 31/21 A3006 RMK A01 T03080213  RH  057%=      5-min Rain = 0
KCH1 171754Z 18009G16KT 31/21 A3006 RMK A01 T03090214  RH  057%=      5-min Rain = 0
KCH1 171755Z 19009KT 31/22 A3006 RMK A01 T03130215  RH  056%=      5-min Rain = 0
KCH1 171756Z 17012KT 32/21 A3006 RMK A01 T03160214  RH  055%=      5-min Rain = 0
KCH1 171757Z 17012KT 32/21 A3006 RMK A01 T03150213  RH  055%=      5-min Rain = 0
KCH1 171758Z 17009KT 31/21 A3006 RMK A01 T03140213  RH  055%=      5-min Rain = 0
KCH1 171759Z 17011KT 31/21 A3006 RMK A01 T03140213  RH  055%=      5-min Rain = 0
KCH1 171800Z 18007KT 31/21 A3006 RMK A01 T03140213  RH  055%=      5-min Rain = 0
KCH1 171801Z 17010KT 31/21 A3005 RMK A01 T03120213  RH  056%=      5-min Rain = 0
KCH1 171802Z 16011KT 31/21 A3005 RMK A01 T03140214  RH  056%=      5-min Rain = 0
KCH1 171803Z 16012KT 32/21 A3005 RMK A01 T03150213  RH  055%=      5-min Rain = 0
KCH1 171804Z 18009KT 31/21 A3005 RMK A01 T03140214  RH  055%=      5-min Rain = 0
KCH1 171805Z 21008KT 31/21 A3005 RMK A01 T03140214  RH  055%=      5-min Rain = 0
KCH1 171806Z 21008KT 32/21 A3005 RMK A01 T03150213  RH  055%=      5-min Rain = 0
KCH1 171807Z 20011KT 32/21 A3005 RMK A01 T03160211  RH  054%=      5-min Rain = 0
KCH1 171808Z 20011G16KT 32/21 A3005 RMK A01 T03160209  RH  053%=      5-min Rain = 0
KCH1 171809Z 19011KT 32/21 A3005 RMK A01 T03150209  RH  053%=      5-min Rain = 0
KCH1 171810Z 20007KT 32/21 A3005 RMK A01 T03150211  RH  054%=      5-min Rain = 0
KCH1 171811Z 21009KT 32/21 A3005 RMK A01 T03150210  RH  054%=      5-min Rain = 0
KCH1 171812Z 20008KT 32/21 A3005 RMK A01 T03150212  RH  055%=      5-min Rain = 0
KCH1 171813Z 18011KT 32/21 A3005 RMK A01 T03150213  RH  055%=      5-min Rain = 0
KCH1 171814Z 17011KT 32/21 A3005 RMK A01 T03170212  RH  054%=      5-min Rain = 0
KCH1 171815Z 17011G16KT 32/21 A3005 RMK A01 T03180211  RH  053%=      5-min Rain = 0
KCH1 171816Z 17013KT 32/21 A3005 RMK A01 T03170212  RH  054%=      5-min Rain = 0
KCH1 171817Z 17015KT 32/21 A3005 RMK A01 T03160209  RH  053%=      5-min Rain = 0
KCH1 171818Z 17010KT 31/21 A3005 RMK A01 T03130209  RH  054%=      5-min Rain = 0
KCH1 171819Z 16010KT 31/21 A3005 RMK A01 T03110210  RH  055%=      5-min Rain = 0
KCH1 171820Z 19010KT 32/21 A3005 RMK A01 T03160211  RH  054%=      5-min Rain = 0
KCH1 171821Z 17008G13KT 32/21 A3005 RMK A01 T03190211  RH  053%=      5-min Rain = 0
KCH1 171822Z 15011KT 32/21 A3005 RMK A01 T03210211  RH  052%=      5-min Rain = 0
KCH1 171823Z 14013KT 32/21 A3005 RMK A01 T03210211  RH  052%=      5-min Rain = 0
KCH1 171824Z 14011KT 32/21 A3005 RMK A01 T03210210  RH  052%=      5-min Rain = 0
KCH1 171825Z 16010KT 32/21 A3005 RMK A01 T03200213  RH  053%=      5-min Rain = 0
KCH1 171826Z 18011KT 32/21 A3004 RMK A01 T03220214  RH  053%=      5-min Rain = 0
KCH1 171827Z 18012KT 32/21 A3004 RMK A01 T03220211  RH  052%=      5-min Rain = 0
KCH1 171828Z 19010KT 32/21 A3004 RMK A01 T03200209  RH  052%=      5-min Rain = 0
KCH1 171829Z 20012KT 32/21 A3004 RMK A01 T03190208  RH  052%=      5-min Rain = 0
KCH1 171830Z 22008G13KT 32/21 A3004 RMK A01 T03170210  RH  053%=      5-min Rain = 0
KCH1 171831Z 20006G11KT 32/21 A3004 RMK A01 T03180211  RH  053%=      5-min Rain = 0
KCH1 171832Z 19010G17KT 32/21 A3004 RMK A01 T03220212  RH  052%=      5-min Rain = 0
KCH1 171833Z 19012G18KT 32/21 A3004 RMK A01 T03240212  RH  052%=      5-min Rain = 0
KCH1 171834Z 18013KT 32/21 A3004 RMK A01 T03230212  RH  052%=      5-min Rain = 0
KCH1 171835Z 16014KT 32/21 A3004 RMK A01 T03210210  RH  052%=      5-min Rain = 0
KCH1 171836Z 18011KT 32/21 A3004 RMK A01 T03200211  RH  052%=      5-min Rain = 0
KCH1 171837Z 18009KT 32/21 A3004 RMK A01 T03200210  RH  052%=      5-min Rain = 0
KCH1 171838Z 19008KT 32/21 A3004 RMK A01 T03200211  RH  052%=      5-min Rain = 0
KCH1 171839Z 16007KT 32/21 A3004 RMK A01 T03190212  RH  053%=      5-min Rain = 0
KCH1 171840Z 19012G17KT 32/21 A3004 RMK A01 T03220211  RH  052%=      5-min Rain = 0
KCH1 171841Z 18014KT 32/21 A3004 RMK A01 T03240208  RH  051%=      5-min Rain = 0
KCH1 171842Z 19013KT 32/21 A3004 RMK A01 T03220206  RH  050%=      5-min Rain = 0
KCH1 171843Z 19009KT 32/21 A3004 RMK A01 T03200208  RH  052%=      5-min Rain = 0
KCH1 171844Z 18009KT 32/21 A3004 RMK A01 T03210208  RH  051%=      5-min Rain = 0
KCH1 171845Z 17011KT 32/21 A3004 RMK A01 T03230210  RH  051%=      5-min Rain = 0
KCH1 171846Z 16011KT 32/21 A3004 RMK A01 T03230210  RH  051%=      5-min Rain = 0
KCH1 171847Z 17010KT 32/21 A3004 RMK A01 T03240210  RH  051%=      5-min Rain = 0
KCH1 171848Z 17010KT 33/21 A3003 RMK A01 T03260211  RH  051%=      5-min Rain = 0
KCH1 171849Z 19008KT 33/21 A3003 RMK A01 T03250212  RH  051%=      5-min Rain = 0
KCH1 171850Z 17010KT 32/21 A3003 RMK A01 T03240211  RH  051%=      5-min Rain = 0
KCH1 171851Z 18010KT 32/21 A3003 RMK A01 T03240211  RH  051%=      5-min Rain = 0
KCH1 171852Z 18013KT 32/21 A3003 RMK A01 T03240210  RH  051%=      5-min Rain = 0
KCH1 171853Z 18014G19KT 33/21 A3003 RMK A01 T03250211  RH  051%=      5-min Rain = 0
KCH1 171854Z 20014G19KT 33/21 A3003 RMK A01 T03260206  RH  049%=      5-min Rain = 0
KCH1 171855Z 19012KT 32/21 A3003 RMK A01 T03230207  RH  050%=      5-min Rain = 0
KCH1 171856Z 17011KT 32/21 A3003 RMK A01 T03220208  RH  051%=      5-min Rain = 0
KCH1 171857Z 18011KT 32/21 A3003 RMK A01 T03210209  RH  052%=      5-min Rain = 0
KCH1 171858Z 17013KT 32/21 A3003 RMK A01 T03220209  RH  051%=      5-min Rain = 0
KCH1 171859Z 18009KT 32/21 A3003 RMK A01 T03220210  RH  052%=      5-min Rain = 0
KCH1 171900Z 19009KT 32/21 A3003 RMK A01 T03230209  RH  051%=      5-min Rain = 0
KCH1 171901Z 19011KT 32/21 A3003 RMK A01 T03220210  RH  051%=      5-min Rain = 0
KCH1 171902Z 19010KT 32/21 A3003 RMK A01 T03230209  RH  051%=      5-min Rain = 0
KCH1 171903Z 19009KT 32/21 A3003 RMK A01 T03230212  RH  052%=      5-min Rain = 0
KCH1 171904Z 21010KT 33/21 A3003 RMK A01 T03260209  RH  050%=      5-min Rain = 0
KCH1 171905Z 22011KT 33/21 A3003 RMK A01 T03270211  RH  050%=      5-min Rain = 0
KCH1 171906Z 21010KT 33/21 A3003 RMK A01 T03290210  RH  050%=      5-min Rain = 0
KCH1 171907Z 22012KT 33/21 A3003 RMK A01 T03290207  RH  049%=      5-min Rain = 0
KCH1 171908Z 22011G16KT 33/21 A3003 RMK A01 T03270208  RH  050%=      5-min Rain = 0
KCH1 171909Z 19007KT 33/21 A3003 RMK A01 T03270211  RH  051%=      5-min Rain = 0
KCH1 171910Z 20012KT 33/21 A3003 RMK A01 T03320211  RH  049%=      5-min Rain = 0
KCH1 171911Z 21009KT 33/21 A3002 RMK A01 T03310208  RH  049%=      5-min Rain = 0
KCH1 171912Z 19010KT 33/21 A3003 RMK A01 T03280209  RH  050%=      5-min Rain = 0
KCH1 171913Z 19010KT 33/21 A3003 RMK A01 T03290208  RH  049%=      5-min Rain = 0
KCH1 171914Z 17011G16KT 33/21 A3003 RMK A01 T03310210  RH  049%=      5-min Rain = 0
KCH1 171915Z 16008KT 33/21 A3002 RMK A01 T03320211  RH  049%=      5-min Rain = 0
KCH1 171916Z 14011KT 34/21 A3002 RMK A01 T03370210  RH  048%=      5-min Rain = 0
KCH1 171917Z 17012KT 34/21 A3002 RMK A01 T03370209  RH  047%=      5-min Rain = 0
KCH1 171918Z 19014G20KT 34/21 A3002 RMK A01 T03350209  RH  048%=      5-min Rain = 0
KCH1 171919Z 19013KT 33/21 A3002 RMK A01 T03330207  RH  048%=      5-min Rain = 0
KCH1 171920Z 20009KT 33/21 A3002 RMK A01 T03310205  RH  048%=      5-min Rain = 0
KCH1 171921Z 20009G14KT 33/21 A3002 RMK A01 T03310207  RH  048%=      5-min Rain = 0
KCH1 171922Z 20011G17KT 33/21 A3002 RMK A01 T03320209  RH  049%=      5-min Rain = 0
KCH1 171923Z 20012G17KT 33/20 A3002 RMK A01 T03320201  RH  046%=      5-min Rain = 0
KCH1 171924Z 17009KT 33/20 A3002 RMK A01 T03290198  RH  046%=      5-min Rain = 0
KCH1 171925Z 18012KT 33/20 A3002 RMK A01 T03300203  RH  047%=      5-min Rain = 0
KCH1 171926Z 19011KT 33/20 A3002 RMK A01 T03320204  RH  047%=      5-min Rain = 0
KCH1 171927Z 19012G17KT 33/20 A3002 RMK A01 T03330203  RH  047%=      5-min Rain = 0
KCH1 171928Z 20008KT 33/20 A3002 RMK A01 T03300201  RH  047%=      5-min Rain = 0
KCH1 171929Z 18010KT 33/20 A3002 RMK A01 T03290199  RH  046%=      5-min Rain = 0
KCH1 171930Z 18009KT 33/20 A3002 RMK A01 T03300199  RH  046%=      5-min Rain = 0
KCH1 171931Z 17008KT 33/20 A3002 RMK A01 T03320199  RH  046%=      5-min Rain = 0
KCH1 171932Z 19008G16KT 33/20 A3002 RMK A01 T03340199  RH  045%=      5-min Rain = 0
KCH1 171933Z 18013KT 34/20 A3002 RMK A01 T03360200  RH  045%=      5-min Rain = 0
KCH1 171934Z 17011KT 34/20 A3002 RMK A01 T03350198  RH  045%=      5-min Rain = 0
KCH1 171935Z 17015KT 34/20 A3002 RMK A01 T03350203  RH  046%=      5-min Rain = 0
KCH1 171936Z 18012KT 33/20 A3002 RMK A01 T03340203  RH  046%=      5-min Rain = 0
KCH1 171937Z 18012G17KT 33/20 A3001 RMK A01 T03320203  RH  047%=      5-min Rain = 0
KCH1 171938Z 18012G17KT 33/20 A3001 RMK A01 T03310202  RH  047%=      5-min Rain = 0
KCH1 171939Z 19014KT 33/20 A3001 RMK A01 T03320201  RH  046%=      5-min Rain = 0
KCH1 171940Z 19013KT 33/20 A3001 RMK A01 T03310201  RH  047%=      5-min Rain = 0
KCH1 171941Z 19011KT 33/20 A3001 RMK A01 T03310201  RH  047%=      5-min Rain = 0
KCH1 171942Z 17009KT 33/21 A3001 RMK A01 T03340205  RH  047%=      5-min Rain = 0
KCH1 171943Z 16012KT 34/20 A3001 RMK A01 T03390204  RH  045%=      5-min Rain = 0
KCH1 171944Z 16012KT 34/20 A3001 RMK A01 T03400203  RH  045%=      5-min Rain = 0
KCH1 171945Z 16012KT 34/20 A3001 RMK A01 T03390199  RH  044%=      5-min Rain = 0
KCH1 171946Z 19012KT 34/20 A3001 RMK A01 T03390200  RH  044%=      5-min Rain = 0
KCH1 171947Z 18012G18KT 34/20 A3001 RMK A01 T03410198  RH  043%=      5-min Rain = 0
KCH1 171948Z 19017G23KT 34/20 A3001 RMK A01 T03400199  RH  043%=      5-min Rain = 0
KCH1 171949Z 20014KT 34/20 A3001 RMK A01 T03370198  RH  044%=      5-min Rain = 0
KCH1 171950Z 21011KT 34/20 A3001 RMK A01 T03350198  RH  045%=      5-min Rain = 0
KCH1 171951Z 21009KT 33/20 A3001 RMK A01 T03340199  RH  045%=      5-min Rain = 0
KCH1 171952Z 20008KT 33/20 A3001 RMK A01 T03340199  RH  045%=      5-min Rain = 0
KCH1 171953Z 19009KT 34/20 A3001 RMK A01 T03350200  RH  045%=      5-min Rain = 0
KCH1 171954Z 18007KT 34/20 A3001 RMK A01 T03380202  RH  045%=      5-min Rain = 0
KCH1 171955Z 19006KT 34/20 A3001 RMK A01 T03390198  RH  043%=      5-min Rain = 0
KCH1 171956Z 18005KT 34/20 A3001 RMK A01 T03400200  RH  044%=      5-min Rain = 0
KCH1 171957Z 18008G13KT 34/20 A3001 RMK A01 T03430199  RH  043%=      5-min Rain = 0
KCH1 171958Z 20008KT 35/20 A3001 RMK A01 T03470200  RH  042%=      5-min Rain = 0
KCH1 171959Z 18009G16KT 35/20 A3001 RMK A01 T03480202  RH  042%=      5-min Rain = 0
KCH1 172000Z 16012KT 35/20 A3001 RMK A01 T03480203  RH  043%=      5-min Rain = 0
KCH1 172001Z 19012KT 34/20 A3001 RMK A01 T03440202  RH  043%=      5-min Rain = 0
KCH1 172002Z 18011KT 34/20 A3001 RMK A01 T03410201  RH  044%=      5-min Rain = 0
KCH1 172003Z 18010KT 34/20 A3001 RMK A01 T03400202  RH  044%=      5-min Rain = 0
KCH1 172004Z 21010KT 34/20 A3001 RMK A01 T03400202  RH  044%=      5-min Rain = 0
KCH1 172005Z 21011KT 34/20 A30 RMK A01 T03400198  RH  043%=      5-min Rain = 0
KCH1 172006Z 19007KT 34/20 A30 RMK A01 T03380201  RH  045%=      5-min Rain = 0
KCH1 172007Z 18009KT 34/20 A3001 RMK A01 T03400204  RH  045%=      5-min Rain = 0
KCH1 172008Z 16012KT 34/20 A30 RMK A01 T03440199  RH  043%=      5-min Rain = 0
KCH1 172009Z 16016G21KT 35/20 A30 RMK A01 T03460199  RH  042%=      5-min Rain = 0
KCH1 172010Z 17014G19KT 35/20 A30 RMK A01 T03450198  RH  042%=      5-min Rain = 0
KCH1 172011Z 17014KT 34/20 A30 RMK A01 T03440200  RH  043%=      5-min Rain = 0
KCH1 172012Z 18011KT 34/20 A30 RMK A01 T03420200  RH  043%=      5-min Rain = 0
KCH1 172013Z 18008KT 34/20 A3001 RMK A01 T03400202  RH  045%=      5-min Rain = 0
KCH1 172014Z 17012G17KT 34/20 A30 RMK A01 T03400201  RH  044%=      5-min Rain = 0
KCH1 172015Z 16009KT 34/20 A30 RMK A01 T03410202  RH  044%=      5-min Rain = 0
KCH1 172016Z 15008G14KT 34/21 A30 RMK A01 T03430205  RH  045%=      5-min Rain = 0
KCH1 172017Z 16012KT 35/20 A30 RMK A01 T03460203  RH  043%=      5-min Rain = 0
KCH1 172018Z 15009KT 34/20 A30 RMK A01 T03430200  RH  043%=      5-min Rain = 0
KCH1 172019Z 14009KT 34/20 A30 RMK A01 T03400203  RH  044%=      5-min Rain = 0
KCH1 172020Z 15013KT 34/20 A30 RMK A01 T03410200  RH  044%=      5-min Rain = 0
KCH1 172021Z 15013KT 34/20 A30 RMK A01 T03380200  RH  044%=      5-min Rain = 0
KCH1 172022Z 17011KT 34/20 A30 RMK A01 T03390202  RH  045%=      5-min Rain = 0
KCH1 172023Z 17011KT 34/20 A30 RMK A01 T03420202  RH  044%=      5-min Rain = 0
KCH1 172024Z 18010KT 34/20 A30 RMK A01 T03430196  RH  042%=      5-min Rain = 0
KCH1 172025Z 19011KT 34/20 A30 RMK A01 T03440195  RH  042%=      5-min Rain = 0
KCH1 172026Z 19009KT 35/20 A30 RMK A01 T03450195  RH  041%=      5-min Rain = 0
KCH1 172027Z 19007KT 35/20 A30 RMK A01 T03460195  RH  041%=      5-min Rain = 0
KCH1 172028Z 20012G18KT 35/20 A30 RMK A01 T03470198  RH  042%=      5-min Rain = 0
KCH1 172029Z 20014KT 35/20 A30 RMK A01 T03460196  RH  041%=      5-min Rain = 0
KCH1 172030Z 21009KT 34/20 A30 RMK A01 T03410195  RH  042%=      5-min Rain = 0
KCH1 172031Z 18008G15KT 34/20 A30 RMK A01 T03400200  RH  044%=      5-min Rain = 0
KCH1 172032Z 19012KT 34/20 A30 RMK A01 T03430198  RH  043%=      5-min Rain = 0
KCH1 172033Z 18012G17KT 34/20 A30 RMK A01 T03430197  RH  042%=      5-min Rain = 0
KCH1 172034Z 17012G17KT 34/20 A30 RMK A01 T03410195  RH  042%=      5-min Rain = 0
KCH1 172035Z 16013KT 34/20 A2999 RMK A01 T03400196  RH  043%=      5-min Rain = 0
KCH1 172036Z 18013G18KT 34/20 A2999 RMK A01 T03400195  RH  042%=      5-min Rain = 0
KCH1 172037Z 19008KT 34/20 A30 RMK A01 T03400197  RH  043%=      5-min Rain = 0
KCH1 172038Z 20011G18KT 34/19 A2999 RMK A01 T03410194  RH  042%=      5-min Rain = 0
KCH1 172039Z 21010G15KT 34/19 A2999 RMK A01 T03410193  RH  042%=      5-min Rain = 0
KCH1 172040Z 22008KT 34/19 A2999 RMK A01 T03420191  RH  041%=      5-min Rain = 0
KCH1 172041Z 20008KT 34/19 A2999 RMK A01 T03410194  RH  042%=      5-min Rain = 0
KCH1 172042Z 18012G18KT 34/20 A2999 RMK A01 T03430197  RH  042%=      5-min Rain = 0
KCH1 172043Z 18012KT 35/20 A2999 RMK A01 T03450198  RH  042%=      5-min Rain = 0
KCH1 172044Z 19011KT 35/20 A2999 RMK A01 T03450201  RH  043%=      5-min Rain = 0
KCH1 172045Z 19010G15KT 35/19 A2999 RMK A01 T03470193  RH  040%=      5-min Rain = 0
KCH1 172046Z 18012KT 35/19 A2999 RMK A01 T03460192  RH  040%=      5-min Rain = 0
KCH1 172047Z 19014KT 34/19 A2999 RMK A01 T03440191  RH  041%=      5-min Rain = 0
KCH1 172048Z 19013G18KT 35/19 A2999 RMK A01 T03450194  RH  041%=      5-min Rain = 0
KCH1 172049Z 19013KT 34/19 A2999 RMK A01 T03440194  RH  041%=      5-min Rain = 0
KCH1 172050Z 20011KT 34/20 A2999 RMK A01 T03420196  RH  042%=      5-min Rain = 0
KCH1 172051Z 19011G16KT 34/20 A2999 RMK A01 T03410195  RH  042%=      5-min Rain = 0
KCH1 172052Z 20009G14KT 34/20 A2999 RMK A01 T03390196  RH  043%=      5-min Rain = 0
KCH1 172053Z 17012KT 34/20 A2999 RMK A01 T03410197  RH  043%=      5-min Rain = 0
KCH1 172054Z 16012G17KT 34/20 A2999 RMK A01 T03430196  RH  042%=      5-min Rain = 0
KCH1 172055Z 16013KT 35/20 A2999 RMK A01 T03450195  RH  041%=      5-min Rain = 0
KCH1 172056Z 16013G19KT 35/20 A2999 RMK A01 T03450195  RH  041%=      5-min Rain = 0
KCH1 172057Z 18011KT 35/20 A2999 RMK A01 T03460195  RH  041%=      5-min Rain = 0
KCH1 172058Z 18009G14KT 35/20 A2999 RMK A01 T03470200  RH  042%=      5-min Rain = 0
KCH1 172059Z 18008KT 35/20 A2999 RMK A01 T03490196  RH  041%=      5-min Rain = 0
KCH1 172100Z 18011KT 35/20 A2998 RMK A01 T03460195  RH  041%=      5-min Rain = 0
KCH1 172101Z 17015G21KT 34/20 A2998 RMK A01 T03430195  RH  042%=      5-min Rain = 0
KCH1 172102Z 17014KT 34/19 A2998 RMK A01 T03420191  RH  041%=      5-min Rain = 0
KCH1 172103Z 18013G18KT 34/19 A2998 RMK A01 T03420190  RH  041%=      5-min Rain = 0
KCH1 172104Z 18011KT 34/19 A2998 RMK A01 T03410192  RH  041%=      5-min Rain = 0
KCH1 172105Z 18008KT 34/19 A2998 RMK A01 T03420193  RH  041%=      5-min Rain = 0
KCH1 172106Z 17009KT 34/19 A2998 RMK A01 T03430194  RH  042%=      5-min Rain = 0
KCH1 172107Z 16009KT 35/20 A2998 RMK A01 T03450199  RH  042%=      5-min Rain = 0
KCH1 172108Z 17015KT 35/20 A2998 RMK A01 T03490199  RH  041%=      5-min Rain = 0
KCH1 172109Z 18012KT 35/19 A2998 RMK A01 T03480194  RH  040%=      5-min Rain = 0
KCH1 172110Z 18012G17KT 35/20 A2998 RMK A01 T03450195  RH  041%=      5-min Rain = 0
KCH1 172111Z 19012G17KT 34/19 A2998 RMK A01 T03430193  RH  041%=      5-min Rain = 0
KCH1 172112Z 16010KT 34/20 A2998 RMK A01 T03420195  RH  042%=      5-min Rain = 0
KCH1 172113Z 15012G18KT 35/20 A2998 RMK A01 T03460198  RH  042%=      5-min Rain = 0
KCH1 172114Z 16011G17KT 35/19 A2998 RMK A01 T03490194  RH  040%=      5-min Rain = 0
KCH1 172115Z 15008KT 35/20 A2998 RMK A01 T03490199  RH  042%=      5-min Rain = 0
KCH1 172116Z 15010KT 35/20 A2998 RMK A01 T03500195  RH  040%=      5-min Rain = 0
KCH1 172117Z 13012KT 35/20 A2998 RMK A01 T03490196  RH  041%=      5-min Rain = 0
KCH1 172118Z 15012KT 35/20 A2998 RMK A01 T03480196  RH  041%=      5-min Rain = 0
KCH1 172119Z 16013G18KT 35/20 A2998 RMK A01 T03470197  RH  041%=      5-min Rain = 0
KCH1 172120Z 16014G19KT 35/19 A2998 RMK A01 T03480194  RH  041%=      5-min Rain = 0
KCH1 172121Z 17012G17KT 35/19 A2998 RMK A01 T03460193  RH  041%=      5-min Rain = 0
KCH1 172122Z 16018KT 35/19 A2997 RMK A01 T03460192  RH  041%=      5-min Rain = 0
KCH1 172123Z 17015G21KT 35/19 A2998 RMK A01 T03450192  RH  041%=      5-min Rain = 0
KCH1 172124Z 17011KT 35/20 A2998 RMK A01 T03470195  RH  041%=      5-min Rain = 0
KCH1 172125Z 17015KT 35/19 A2998 RMK A01 T03500194  RH  040%=      5-min Rain = 0
KCH1 172126Z 17011G16KT 35/20 A2998 RMK A01 T03490195  RH  041%=      5-min Rain = 0
KCH1 172127Z 15012KT 35/20 A2998 RMK A01 T03470198  RH  042%=      5-min Rain = 0
KCH1 172128Z 15013KT 35/20 A2998 RMK A01 T03480198  RH  041%=      5-min Rain = 0
KCH1 172129Z 16012KT 35/20 A2997 RMK A01 T03490199  RH  041%=      5-min Rain = 0
KCH1 172130Z 16012G18KT 35/20 A2997 RMK A01 T03490199  RH  041%=      5-min Rain = 0
KCH1 172131Z 17010KT 35/20 A2997 RMK A01 T03490201  RH  042%=      5-min Rain = 0
KCH1 172132Z 18011KT 35/20 A2997 RMK A01 T03500200  RH  042%=      5-min Rain = 0
KCH1 172133Z 16013G18KT 35/20 A2997 RMK A01 T03490201  RH  042%=      5-min Rain = 0
KCH1 172134Z 15014KT 35/20 A2997 RMK A01 T03490198  RH  041%=      5-min Rain = 0
KCH1 172135Z 16015KT 35/20 A2997 RMK A01 T03480197  RH  041%=      5-min Rain = 0
KCH1 172136Z 17011KT 35/20 A2997 RMK A01 T03460195  RH  041%=      5-min Rain = 0
KCH1 172137Z 15011KT 35/20 A2997 RMK A01 T03470197  RH  041%=      5-min Rain = 0
KCH1 172138Z 14016KT 35/19 A2997 RMK A01 T03480194  RH  040%=      5-min Rain = 0
KCH1 172139Z 16014G19KT 35/19 A2997 RMK A01 T03490194  RH  040%=      5-min Rain = 0
KCH1 172140Z 18016KT 35/19 A2997 RMK A01 T03480193  RH  040%=      5-min Rain = 0
KCH1 172141Z 18014KT 35/19 A2997 RMK A01 T03470191  RH  040%=      5-min Rain = 0
KCH1 172142Z 19012KT 35/19 A2997 RMK A01 T03450190  RH  040%=      5-min Rain = 0
KCH1 172143Z 18011KT 35/19 A2997 RMK A01 T03450192  RH  040%=      5-min Rain = 0
KCH1 172144Z 18013KT 35/19 A2997 RMK A01 T03470192  RH  040%=      5-min Rain = 0
KCH1 172145Z 18014G19KT 35/19 A2997 RMK A01 T03480188  RH  039%=      5-min Rain = 0
KCH1 172146Z 17013KT 35/19 A2997 RMK A01 T03480186  RH  039%=      5-min Rain = 0
KCH1 172147Z 18010KT 35/19 A2997 RMK A01 T03470187  RH  039%=      5-min Rain = 0
KCH1 172148Z 18012KT 35/19 A2997 RMK A01 T03470185  RH  039%=      5-min Rain = 0
KCH1 172149Z 18011KT 35/19 A2996 RMK A01 T03470187  RH  039%=      5-min Rain = 0
KCH1 172150Z 16011KT 35/19 A2997 RMK A01 T03470189  RH  039%=      5-min Rain = 0
KCH1 172151Z 17016KT 35/19 A2996 RMK A01 T03470192  RH  040%=      5-min Rain = 0
KCH1 172152Z 16015KT 35/19 A2996 RMK A01 T03460193  RH  041%=      5-min Rain = 0
KCH1 172153Z 17015KT 35/19 A2996 RMK A01 T03460192  RH  040%=      5-min Rain = 0
KCH1 172154Z 16016KT 35/19 A2996 RMK A01 T03460191  RH  040%=      5-min Rain = 0
KCH1 172155Z 17013KT 35/19 A2996 RMK A01 T03450192  RH  041%=      5-min Rain = 0
KCH1 172156Z 16013G20KT 35/19 A2996 RMK A01 T03450191  RH  040%=      5-min Rain = 0
KCH1 172157Z 17013KT 34/19 A2996 RMK A01 T03440191  RH  041%=      5-min Rain = 0
KCH1 172158Z 17016KT 34/19 A2996 RMK A01 T03440190  RH  040%=      5-min Rain = 0
KCH1 172159Z 16016KT 35/19 A2996 RMK A01 T03450189  RH  040%=      5-min Rain = 0
KCH1 172200Z 15015G20KT 34/19 A2996 RMK A01 T03440186  RH  039%=      5-min Rain = 0
KCH1 172201Z 15018KT 34/19 A2996 RMK A01 T03440186  RH  039%=      5-min Rain = 0
KCH1 172202Z 17014KT 35/19 A2996 RMK A01 T03450186  RH  039%=      5-min Rain = 0
KCH1 172203Z 17014KT 34/19 A2996 RMK A01 T03440187  RH  040%=      5-min Rain = 0
KCH1 172204Z 17012KT 34/19 A2996 RMK A01 T03430187  RH  040%=      5-min Rain = 0
KCH1 172205Z 18013KT 34/19 A2996 RMK A01 T03430188  RH  040%=      5-min Rain = 0
KCH1 172206Z 16011KT 34/19 A2996 RMK A01 T03440192  RH  041%=      5-min Rain = 0
KCH1 172207Z 18012G17KT 35/19 A2996 RMK A01 T03470191  RH  040%=      5-min Rain = 0
KCH1 172208Z 18018KT 35/19 A2996 RMK A01 T03470187  RH  039%=      5-min Rain = 0
KCH1 172209Z 18014KT 35/19 A2996 RMK A01 T03460185  RH  039%=      5-min Rain = 0
KCH1 172210Z 19011G16KT 35/19 A2996 RMK A01 T03460185  RH  039%=      5-min Rain = 0
KCH1 172211Z 19009KT 35/19 A2996 RMK A01 T03460188  RH  039%=      5-min Rain = 0
KCH1 172212Z 18016KT 35/19 A2996 RMK A01 T03480187  RH  039%=      5-min Rain = 0
KCH1 172213Z 17016KT 35/19 A2996 RMK A01 T03470189  RH  039%=      5-min Rain = 0
KCH1 172214Z 17016KT 35/19 A2996 RMK A01 T03460186  RH  039%=      5-min Rain = 0
KCH1 172215Z 17013G18KT 34/19 A2996 RMK A01 T03440187  RH  039%=      5-min Rain = 0
KCH1 172216Z 18013KT 34/19 A2996 RMK A01 T03440187  RH  040%=      5-min Rain = 0
KCH1 172217Z 19012KT 34/19 A2996 RMK A01 T03430187  RH  040%=      5-min Rain = 0
KCH1 172218Z 18010KT 34/19 A2996 RMK A01 T03440189  RH  040%=      5-min Rain = 0
KCH1 172219Z 19013G19KT 35/19 A2995 RMK A01 T03460191  RH  040%=      5-min Rain = 0
KCH1 172220Z 17012G17KT 35/19 A2995 RMK A01 T03470192  RH  040%=      5-min Rain = 0
KCH1 172221Z 16013KT 35/19 A2995 RMK A01 T03480193  RH  040%=      5-min Rain = 0
KCH1 172222Z 14018KT 35/19 A2995 RMK A01 T03470192  RH  040%=      5-min Rain = 0
KCH1 172223Z 15014KT 35/19 A2995 RMK A01 T03460191  RH  040%=      5-min Rain = 0
KCH1 172224Z 16013G21KT 35/19 A2995 RMK A01 T03450193  RH  041%=      5-min Rain = 0
KCH1 172225Z 17019KT 35/19 A2995 RMK A01 T03460193  RH  041%=      5-min Rain = 0
KCH1 172226Z 18014G20KT 35/20 A2995 RMK A01 T03460195  RH  041%=      5-min Rain = 0
KCH1 172227Z 17017KT 35/19 A2995 RMK A01 T03450193  RH  041%=      5-min Rain = 0
KCH1 172228Z 17014G20KT 34/19 A2995 RMK A01 T03440193  RH  041%=      5-min Rain = 0
KCH1 172229Z 17015KT 34/19 A2995 RMK A01 T03430192  RH  041%=      5-min Rain = 0
KCH1 172230Z 18012KT 34/19 A2995 RMK A01 T03420194  RH  042%=      5-min Rain = 0
KCH1 172231Z 18012KT 34/19 A2995 RMK A01 T03420194  RH  042%=      5-min Rain = 0
KCH1 172232Z 16009KT 34/20 A2995 RMK A01 T03430195  RH  042%=      5-min Rain = 0
KCH1 172233Z 15015G21KT 34/20 A2995 RMK A01 T03440196  RH  042%=      5-min Rain = 0
KCH1 172234Z 16012G20KT 35/20 A2995 RMK A01 T03460196  RH  041%=      5-min Rain = 0
KCH1 172235Z 16013KT 35/20 A2995 RMK A01 T03480195  RH  041%=      5-min Rain = 0
KCH1 172236Z 16013KT 35/19 A2995 RMK A01 T03490190  RH  039%=      5-min Rain = 0
KCH1 172237Z 18013KT 35/19 A2995 RMK A01 T03470191  RH  040%=      5-min Rain = 0
KCH1 172238Z 18014G19KT 35/19 A2995 RMK A01 T03450189  RH  040%=      5-min Rain = 0
KCH1 172239Z 18012G17KT 34/19 A2995 RMK A01 T03440191  RH  041%=      5-min Rain = 0
KCH1 172240Z 17014G19KT 34/19 A2995 RMK A01 T03440191  RH  041%=      5-min Rain = 0
KCH1 172241Z 17014KT 35/19 A2995 RMK A01 T03450191  RH  040%=      5-min Rain = 0
KCH1 172242Z 16013KT 35/19 A2995 RMK A01 T03450190  RH  040%=      5-min Rain = 0
KCH1 172243Z 16012G18KT 35/19 A2995 RMK A01 T03450191  RH  040%=      5-min Rain = 0
KCH1 172244Z 16012G17KT 35/19 A2995 RMK A01 T03450192  RH  041%=      5-min Rain = 0
KCH1 172245Z 17012G17KT 35/19 A2995 RMK A01 T03460190  RH  040%=      5-min Rain = 0
KCH1 172246Z 15014KT 34/19 A2995 RMK A01 T03440189  RH  040%=      5-min Rain = 0
KCH1 172247Z 16014KT 34/19 A2995 RMK A01 T03440189  RH  040%=      5-min Rain = 0
KCH1 172248Z 15013KT 34/19 A2995 RMK A01 T03440190  RH  040%=      5-min Rain = 0
KCH1 172249Z 16013KT 35/19 A2995 RMK A01 T03450189  RH  040%=      5-min Rain = 0
KCH1 172250Z 16014KT 35/19 A2995 RMK A01 T03460187  RH  039%=      5-min Rain = 0
KCH1 172251Z 16015KT 35/18 A2995 RMK A01 T03460184  RH  038%=      5-min Rain = 0
KCH1 172252Z 16016KT 35/18 A2994 RMK A01 T03450182  RH  038%=      5-min Rain = 0
KCH1 172253Z 16014KT 34/18 A2995 RMK A01 T03430182  RH  038%=      5-min Rain = 0
KCH1 172254Z 17014KT 34/18 A2995 RMK A01 T03430181  RH  038%=      5-min Rain = 0
KCH1 172255Z 17014KT 34/18 A2994 RMK A01 T03430184  RH  039%=      5-min Rain = 0
KCH1 172256Z 16012G17KT 34/19 A2994 RMK A01 T03420185  RH  039%=      5-min Rain = 0
KCH1 172257Z 17010KT 34/19 A2994 RMK A01 T03430187  RH  040%=      5-min Rain = 0
KCH1 172258Z 19011G20KT 35/19 A2994 RMK A01 T03450190  RH  040%=      5-min Rain = 0
KCH1 172259Z 17014KT 35/19 A2994 RMK A01 T03460188  RH  040%=      5-min Rain = 0
KCH1 172300Z 18010KT 35/19 A2994 RMK A01 T03450189  RH  040%=      5-min Rain = 0
KCH1 172301Z 19015KT 34/19 A2994 RMK A01 T03440188  RH  040%=      5-min Rain = 0
KCH1 172302Z 18015KT 34/19 A2994 RMK A01 T03440187  RH  039%=      5-min Rain = 0
KCH1 172303Z 16016KT 34/19 A2994 RMK A01 T03440186  RH  039%=      5-min Rain = 0
KCH1 172304Z 16016KT 34/19 A2994 RMK A01 T03440187  RH  040%=      5-min Rain = 0
KCH1 172305Z 17015KT 34/19 A2994 RMK A01 T03440186  RH  040%=      5-min Rain = 0
KCH1 172306Z 18016G22KT 34/19 A2994 RMK A01 T03430187  RH  040%=      5-min Rain = 0
KCH1 172307Z 17014KT 34/19 A2994 RMK A01 T03420188  RH  040%=      5-min Rain = 0
KCH1 172308Z 17013KT 34/19 A2994 RMK A01 T03430188  RH  040%=      5-min Rain = 0
KCH1 172309Z 18014KT 34/19 A2994 RMK A01 T03420188  RH  040%=      5-min Rain = 0
KCH1 172310Z 17011KT 34/19 A2994 RMK A01 T03430189  RH  040%=      5-min Rain = 0
KCH1 172311Z 17013KT 34/19 A2994 RMK A01 T03440188  RH  040%=      5-min Rain = 0
KCH1 172312Z 17012KT 34/19 A2994 RMK A01 T03440187  RH  040%=      5-min Rain = 0
KCH1 172313Z 17012KT 34/19 A2994 RMK A01 T03440187  RH  040%=      5-min Rain = 0
KCH1 172314Z 18009KT 34/19 A2994 RMK A01 T03440186  RH  039%=      5-min Rain = 0
KCH1 172315Z 19010G15KT 34/19 A2994 RMK A01 T03440185  RH  039%=      5-min Rain = 0
KCH1 172316Z 17007KT 35/19 A2994 RMK A01 T03450187  RH  040%=      5-min Rain = 0
KCH1 172317Z 16014G21KT 35/19 A2994 RMK A01 T03460188  RH  040%=      5-min Rain = 0
KCH1 172318Z 15015KT 35/19 A2994 RMK A01 T03460185  RH  039%=      5-min Rain = 0
KCH1 172319Z 15016KT 35/18 A2994 RMK A01 T03450184  RH  039%=      5-min Rain = 0
KCH1 172320Z 17014KT 34/18 A2994 RMK A01 T03440182  RH  038%=      5-min Rain = 0
KCH1 172321Z 16013KT 34/18 A2994 RMK A01 T03430181  RH  038%=      5-min Rain = 0
KCH1 172322Z 17011KT 34/18 A2994 RMK A01 T03430182  RH  039%=      5-min Rain = 0
KCH1 172323Z 16013KT 34/18 A2994 RMK A01 T03430182  RH  039%=      5-min Rain = 0
KCH1 172324Z 16012G17KT 34/18 A2994 RMK A01 T03420183  RH  039%=      5-min Rain = 0
KCH1 172325Z 17012KT 34/19 A2994 RMK A01 T03430185  RH  039%=      5-min Rain = 0
KCH1 172326Z 17011KT 34/19 A2994 RMK A01 T03430186  RH  039%=      5-min Rain = 0
KCH1 172327Z 18012G17KT 34/19 A2993 RMK A01 T03430186  RH  040%=      5-min Rain = 0
KCH1 172328Z 18012G17KT 34/19 A2993 RMK A01 T03420185  RH  039%=      5-min Rain = 0
KCH1 172329Z 18011KT 34/19 A2993 RMK A01 T03420186  RH  040%=      5-min Rain = 0
KCH1 172330Z 17008KT 34/19 A2994 RMK A01 T03420189  RH  040%=      5-min Rain = 0
KCH1 172331Z 18010G15KT 34/19 A2994 RMK A01 T03440188  RH  040%=      5-min Rain = 0
KCH1 172332Z 18011KT 34/19 A2994 RMK A01 T03440187  RH  040%=      5-min Rain = 0
KCH1 172333Z 18012KT 34/19 A2994 RMK A01 T03440186  RH  039%=      5-min Rain = 0
KCH1 172334Z 18011KT 34/19 A2994 RMK A01 T03420186  RH  040%=      5-min Rain = 0
KCH1 172335Z 17008KT 34/19 A2994 RMK A01 T03420188  RH  040%=      5-min Rain = 0
KCH1 172336Z 18009KT 34/19 A2994 RMK A01 T03430189  RH  040%=      5-min Rain = 0
KCH1 172337Z 17009KT 34/19 A2994 RMK A01 T03440189  RH  040%=      5-min Rain = 0
KCH1 172338Z 18009KT 34/19 A2994 RMK A01 T03440190  RH  040%=      5-min Rain = 0
KCH1 172339Z 19010KT 35/19 A2994 RMK A01 T03450189  RH  040%=      5-min Rain = 0
KCH1 172340Z 18009KT 35/19 A2994 RMK A01 T03450188  RH  039%=      5-min Rain = 0
KCH1 172341Z 17011KT 35/18 A2994 RMK A01 T03450183  RH  038%=      5-min Rain = 0
KCH1 172342Z 18009KT 34/18 A2994 RMK A01 T03440183  RH  039%=      5-min Rain = 0
KCH1 172343Z 18012G18KT 34/18 A2994 RMK A01 T03430181  RH  038%=      5-min Rain = 0
KCH1 172344Z 18013G19KT 34/18 A2994 RMK A01 T03420180  RH  038%=      5-min Rain = 0
KCH1 172345Z 18012G17KT 34/18 A2994 RMK A01 T03410179  RH  038%=      5-min Rain = 0
KCH1 172346Z 19010G16KT 34/18 A2994 RMK A01 T03410180  RH  038%=      5-min Rain = 0
KCH1 172347Z 18015KT 34/18 A2994 RMK A01 T03410180  RH  039%=      5-min Rain = 0
KCH1 172348Z 18014KT 34/18 A2993 RMK A01 T03400179  RH  039%=      5-min Rain = 0
KCH1 172349Z 17014KT 34/18 A2993 RMK A01 T03390180  RH  039%=      5-min Rain = 0
KCH1 172350Z 17012G17KT 34/18 A2994 RMK A01 T03390179  RH  039%=      5-min Rain = 0
KCH1 172351Z 18012KT 34/18 A2994 RMK A01 T03390180  RH  039%=      5-min Rain = 0
KCH1 172352Z 18013KT 34/18 A2994 RMK A01 T03390180  RH  039%=      5-min Rain = 0
KCH1 172353Z 17016KT 34/18 A2993 RMK A01 T03390178  RH  038%=      5-min Rain = 0
KCH1 172354Z 17010KT 34/18 A2994 RMK A01 T03380179  RH  039%=      5-min Rain = 0
KCH1 172355Z 17009KT 34/18 A2994 RMK A01 T03380181  RH  040%=      5-min Rain = 0
KCH1 172356Z 18012KT 34/18 A2994 RMK A01 T03390180  RH  039%=      5-min Rain = 0
KCH1 172357Z 18011KT 34/18 A2994 RMK A01 T03390179  RH  039%=      5-min Rain = 0
KCH1 172358Z 17013KT 34/18 A2993 RMK A01 T03390179  RH  039%=      5-min Rain = 0
KCH1 172359Z 18009KT 34/18 A2994 RMK A01 T03390180  RH  039%=      5-min Rain = 0
KCH1 180000Z 18011KT 34/18 A2994 RMK A01 T03390178  RH  038%=      5-min Rain = 0
KCH1 180001Z 18014KT 34/18 A2994 RMK A01 T03390176  RH  038%=      5-min Rain = 0
KCH1 180002Z 17010G15KT 34/18 A2994 RMK A01 T03390176  RH  038%=      5-min Rain = 0
KCH1 180003Z 18008KT 34/18 A2994 RMK A01 T03390179  RH  039%=      5-min Rain = 0
KCH1 180004Z 17011KT 34/18 A2993 RMK A01 T03390179  RH  039%=      5-min Rain = 0
KCH1 180005Z 18010KT 34/18 A2993 RMK A01 T03390179  RH  039%=      5-min Rain = 0
KCH1 180006Z 16014KT 34/18 A2993 RMK A01 T03390180  RH  039%=      5-min Rain = 0
KCH1 180007Z 17012G17KT 34/18 A2993 RMK A01 T03380178  RH  039%=      5-min Rain = 0
KCH1 180008Z 18012KT 34/18 A2993 RMK A01 T03380176  RH  038%=      5-min Rain = 0
KCH1 180009Z 17011G16KT 34/18 A2993 RMK A01 T03380177  RH  038%=      5-min Rain = 0
KCH1 180010Z 17012KT 34/18 A2993 RMK A01 T03380176  RH  038%=      5-min Rain = 0
KCH1 180011Z 18010KT 34/18 A2993 RMK A01 T03380177  RH  038%=      5-min Rain = 0
KCH1 180012Z 18012KT 34/18 A2993 RMK A01 T03370178  RH  039%=      5-min Rain = 0
KCH1 180013Z 18011KT 34/18 A2993 RMK A01 T03370178  RH  039%=      5-min Rain = 0
KCH1 180014Z 18010KT 34/18 A2993 RMK A01 T03370178  RH  039%=      5-min Rain = 0
KCH1 180015Z 18012KT 34/18 A2993 RMK A01 T03360177  RH  039%=      5-min Rain = 0
KCH1 180016Z 17011KT 34/18 A2993 RMK A01 T03370177  RH  039%=      5-min Rain = 0
KCH1 180017Z 17012KT 34/18 A2993 RMK A01 T03370179  RH  039%=      5-min Rain = 0
KCH1 180018Z 17010KT 34/18 A2993 RMK A01 T03370179  RH  039%=      5-min Rain = 0
KCH1 180019Z 17009KT 34/18 A2993 RMK A01 T03370180  RH  040%=      5-min Rain = 0
KCH1 180020Z 17009KT 34/18 A2993 RMK A01 T03370181  RH  040%=      5-min Rain = 0
KCH1 180021Z 17011KT 34/18 A2993 RMK A01 T03370181  RH  040%=      5-min Rain = 0
KCH1 180022Z 17008KT 34/18 A2993 RMK A01 T03370181  RH  040%=      5-min Rain = 0
KCH1 180023Z 18007KT 34/18 A2993 RMK A01 T03370183  RH  040%=      5-min Rain = 0
KCH1 180024Z 18008KT 34/18 A2993 RMK A01 T03370184  RH  040%=      5-min Rain = 0
KCH1 180025Z 18009KT 34/18 A2993 RMK A01 T03370183  RH  040%=      5-min Rain = 0
KCH1 180026Z 19008G13KT 34/18 A2993 RMK A01 T03370184  RH  040%=      5-min Rain = 0
KCH1 180027Z 18010KT 34/18 A2993 RMK A01 T03360182  RH  040%=      5-min Rain = 0
KCH1 180028Z 18010G15KT 34/18 A2993 RMK A01 T03360181  RH  040%=      5-min Rain = 0
KCH1 180029Z 18012KT 34/18 A2993 RMK A01 T03360178  RH  039%=      5-min Rain = 0
KCH1 180030Z 17011KT 34/18 A2993 RMK A01 T03360177  RH  039%=      5-min Rain = 0
KCH1 180031Z 17012KT 34/18 A2993 RMK A01 T03350177  RH  039%=      5-min Rain = 0
KCH1 180032Z 17010KT 34/18 A2993 RMK A01 T03350177  RH  039%=      5-min Rain = 0
KCH1 180033Z 17011KT 34/18 A2993 RMK A01 T03350178  RH  039%=      5-min Rain = 0
KCH1 180034Z 17011KT 33/18 A2993 RMK A01 T03340179  RH  040%=      5-min Rain = 0
KCH1 180035Z 16011KT 33/18 A2993 RMK A01 T03340179  RH  040%=      5-min Rain = 0
KCH1 180036Z 18011KT 33/18 A2993 RMK A01 T03340180  RH  040%=      5-min Rain = 0
KCH1 180037Z 17008G13KT 33/18 A2993 RMK A01 T03340180  RH  040%=      5-min Rain = 0
KCH1 180038Z 18009KT 33/18 A2993 RMK A01 T03340182  RH  041%=      5-min Rain = 0
KCH1 180039Z 17007KT 33/18 A2993 RMK A01 T03340182  RH  041%=      5-min Rain = 0
KCH1 180040Z 17008KT 33/18 A2993 RMK A01 T03340183  RH  041%=      5-min Rain = 0
KCH1 180041Z 19010KT 33/18 A2993 RMK A01 T03330183  RH  041%=      5-min Rain = 0
KCH1 180042Z 18011KT 33/18 A2993 RMK A01 T03330181  RH  041%=      5-min Rain = 0
KCH1 180043Z 17008KT 33/18 A2993 RMK A01 T03330181  RH  041%=      5-min Rain = 0
KCH1 180044Z 18013KT 33/18 A2993 RMK A01 T03330181  RH  040%=      5-min Rain = 0
KCH1 180045Z 17012KT 33/18 A2993 RMK A01 T03320178  RH  040%=      5-min Rain = 0
KCH1 180046Z 17012KT 33/18 A2993 RMK A01 T03320178  RH  040%=      5-min Rain = 0
KCH1 180047Z 16012KT 33/18 A2993 RMK A01 T03320178  RH  040%=      5-min Rain = 0
KCH1 180048Z 17012KT 33/18 A2993 RMK A01 T03320178  RH  040%=      5-min Rain = 0
KCH1 180049Z 17012KT 33/18 A2993 RMK A01 T03320179  RH  040%=      5-min Rain = 0
KCH1 180050Z 17011KT 33/18 A2993 RMK A01 T03310180  RH  041%=      5-min Rain = 0
KCH1 180051Z 18011KT 33/18 A2994 RMK A01 T03310180  RH  041%=      5-min Rain = 0
KCH1 180052Z 18010KT 33/18 A2994 RMK A01 T03310181  RH  041%=      5-min Rain = 0
KCH1 180053Z 17011KT 33/18 A2994 RMK A01 T03300181  RH  041%=      5-min Rain = 0
KCH1 180054Z 18011KT 33/18 A2994 RMK A01 T03300181  RH  041%=      5-min Rain = 0
KCH1 180055Z 17011KT 33/18 A2994 RMK A01 T03300181  RH  041%=      5-min Rain = 0
KCH1 180056Z 16009KT 33/18 A2994 RMK A01 T03300181  RH  041%=      5-min Rain = 0
KCH1 180057Z 17013KT 33/18 A2994 RMK A01 T03290181  RH  041%=      5-min Rain = 0
KCH1 180058Z 17013KT 33/18 A2993 RMK A01 T03290180  RH  041%=      5-min Rain = 0
KCH1 180059Z 17011KT 33/18 A2993 RMK A01 T03290180  RH  041%=      5-min Rain = 0
KCH1 180100Z 17011KT 33/18 A2993 RMK A01 T03290180  RH  041%=      5-min Rain = 0
KCH1 180101Z 17010KT 33/18 A2993 RMK A01 T03290180  RH  041%=      5-min Rain = 0
KCH1 180102Z 17011KT 33/18 A2993 RMK A01 T03280179  RH  041%=      5-min Rain = 0
KCH1 180103Z 17009G14KT 33/18 A2993 RMK A01 T03280180  RH  041%=      5-min Rain = 0
KCH1 180104Z 17010KT 33/18 A2993 RMK A01 T03280180  RH  041%=      5-min Rain = 0
KCH1 180105Z 18007KT 33/18 A2994 RMK A01 T03270180  RH  042%=      5-min Rain = 0
KCH1 180106Z 17010KT 33/18 A2994 RMK A01 T03270180  RH  042%=      5-min Rain = 0
KCH1 180107Z 17009KT 33/18 A2994 RMK A01 T03270180  RH  042%=      5-min Rain = 0
KCH1 180108Z 18010KT 33/18 A2994 RMK A01 T03270178  RH  041%=      5-min Rain = 0
KCH1 180109Z 18009KT 33/18 A2994 RMK A01 T03270178  RH  041%=      5-min Rain = 0
KCH1 180110Z 18010KT 33/18 A2994 RMK A01 T03270178  RH  041%=      5-min Rain = 0
KCH1 180111Z 18009KT 33/18 A2994 RMK A01 T03270178  RH  041%=      5-min Rain = 0
KCH1 180112Z 17011KT 33/18 A2994 RMK A01 T03260177  RH  041%=      5-min Rain = 0
KCH1 180113Z 17009KT 33/18 A2994 RMK A01 T03260177  RH  041%=      5-min Rain = 0
KCH1 180114Z 18008KT 33/18 A2994 RMK A01 T03260178  RH  041%=      5-min Rain = 0
KCH1 180115Z 17008KT 33/18 A2994 RMK A01 T03260178  RH  041%=      5-min Rain = 0
KCH1 180116Z 18007KT 33/18 A2994 RMK A01 T03250178  RH  042%=      5-min Rain = 0
KCH1 180117Z 17008KT 32/18 A2994 RMK A01 T03240178  RH  042%=      5-min Rain = 0
KCH1 180118Z 17008KT 32/18 A2994 RMK A01 T03240177  RH  042%=      5-min Rain = 0
KCH1 180119Z 16010KT 32/18 A2994 RMK A01 T03230177  RH  042%=      5-min Rain = 0
KCH1 180120Z 17010KT 32/18 A2994 RMK A01 T03230177  RH  042%=      5-min Rain = 0
KCH1 180121Z 17009KT 32/18 A2994 RMK A01 T03230177  RH  042%=      5-min Rain = 0
KCH1 180122Z 16010KT 32/18 A2994 RMK A01 T03230178  RH  042%=      5-min Rain = 0
KCH1 180123Z 16009KT 32/18 A2994 RMK A01 T03230178  RH  042%=      5-min Rain = 0
KCH1 180124Z 16009KT 32/18 A2994 RMK A01 T03230178  RH  042%=      5-min Rain = 0
KCH1 180125Z 17010KT 32/18 A2994 RMK A01 T03220178  RH  042%=      5-min Rain = 0
KCH1 180126Z 17010KT 32/18 A2994 RMK A01 T03220178  RH  042%=      5-min Rain = 0
KCH1 180127Z 17008KT 32/18 A2994 RMK A01 T03210179  RH  043%=      5-min Rain = 0
KCH1 180128Z 17008KT 32/18 A2994 RMK A01 T03210179  RH  043%=      5-min Rain = 0
KCH1 180129Z 16008G13KT 32/18 A2994 RMK A01 T03200179  RH  043%=      5-min Rain = 0
KCH1 180130Z 16008KT 32/18 A2994 RMK A01 T03200180  RH  043%=      5-min Rain = 0
KCH1 180131Z 16009KT 32/18 A2994 RMK A01 T03190179  RH  044%=      5-min Rain = 0
KCH1 180132Z 17011KT 32/18 A2994 RMK A01 T03180179  RH  044%=      5-min Rain = 0
KCH1 180133Z 16009KT 32/18 A2994 RMK A01 T03180179  RH  043%=      5-min Rain = 0
KCH1 180134Z 16010KT 32/18 A2994 RMK A01 T03180179  RH  044%=      5-min Rain = 0
KCH1 180135Z 17010KT 32/18 A2994 RMK A01 T03190179  RH  044%=      5-min Rain = 0
KCH1 180136Z 16008KT 32/18 A2994 RMK A01 T03180179  RH  044%=      5-min Rain = 0
KCH1 180137Z 16009KT 32/18 A2994 RMK A01 T03180179  RH  044%=      5-min Rain = 0
KCH1 180138Z 16009KT 32/18 A2994 RMK A01 T03170179  RH  044%=      5-min Rain = 0
KCH1 180139Z 16008KT 32/18 A2994 RMK A01 T03170179  RH  044%=      5-min Rain = 0
KCH1 180140Z 16008G13KT 32/18 A2994 RMK A01 T03170180  RH  044%=      5-min Rain = 0
KCH1 180141Z 17007KT 32/18 A2994 RMK A01 T03160179  RH  044%=      5-min Rain = 0
KCH1 180142Z 17009KT 32/18 A2994 RMK A01 T03160179  RH  044%=      5-min Rain = 0
KCH1 180143Z 17009KT 32/18 A2994 RMK A01 T03160180  RH  044%=      5-min Rain = 0
KCH1 180144Z 17009KT 32/18 A2994 RMK A01 T03150179  RH  044%=      5-min Rain = 0
KCH1 180145Z 16008KT 32/18 A2994 RMK A01 T03150180  RH  044%=      5-min Rain = 0
KCH1 180146Z 17008KT 32/18 A2995 RMK A01 T03150180  RH  045%=      5-min Rain = 0
KCH1 180147Z 16007KT 31/18 A2995 RMK A01 T03140180  RH  045%=      5-min Rain = 0
KCH1 180148Z 17008KT 31/18 A2995 RMK A01 T03140180  RH  045%=      5-min Rain = 0
KCH1 180149Z 16009KT 31/18 A2995 RMK A01 T03140180  RH  045%=      5-min Rain = 0
KCH1 180150Z 17010KT 31/18 A2995 RMK A01 T03130180  RH  045%=      5-min Rain = 0
KCH1 180151Z 17008KT 31/18 A2995 RMK A01 T03130179  RH  045%=      5-min Rain = 0
KCH1 180152Z 17007KT 31/18 A2995 RMK A01 T03130180  RH  045%=      5-min Rain = 0
KCH1 180153Z 17008KT 31/18 A2995 RMK A01 T03130180  RH  045%=      5-min Rain = 0
KCH1 180154Z 17006KT 31/18 A2995 RMK A01 T03130180  RH  045%=      5-min Rain = 0
KCH1 180155Z 17007KT 31/18 A2995 RMK A01 T03120180  RH  045%=      5-min Rain = 0
KCH1 180156Z 17007KT 31/18 A2995 RMK A01 T03120180  RH  045%=      5-min Rain = 0
KCH1 180157Z 17009KT 31/18 A2995 RMK A01 T03110180  RH  046%=      5-min Rain = 0
KCH1 180158Z 17008KT 31/18 A2995 RMK A01 T03110179  RH  045%=      5-min Rain = 0
KCH1 180159Z 17007KT 31/18 A2995 RMK A01 T03120180  RH  045%=      5-min Rain = 0
KCH1 180200Z 17006KT 31/18 A2995 RMK A01 T03110180  RH  046%=      5-min Rain = 0
KCH1 180201Z 17007KT 31/18 A2995 RMK A01 T03100180  RH  046%=      5-min Rain = 0
KCH1 180202Z 17007KT 31/18 A2995 RMK A01 T03100180  RH  046%=      5-min Rain = 0
KCH1 180203Z 17007KT 31/18 A2995 RMK A01 T03100180  RH  046%=      5-min Rain = 0
KCH1 180204Z 16007KT 31/18 A2995 RMK A01 T03090180  RH  046%=      5-min Rain = 0
KCH1 180205Z 17009KT 31/18 A2995 RMK A01 T03090180  RH  046%=      5-min Rain = 0
KCH1 180206Z 17007KT 31/18 A2995 RMK A01 T03090180  RH  046%=      5-min Rain = 0
KCH1 180207Z 17006KT 31/18 A2995 RMK A01 T03080180  RH  046%=      5-min Rain = 0
KCH1 180208Z 16006KT 31/18 A2995 RMK A01 T03080180  RH  046%=      5-min Rain = 0
KCH1 180209Z 17009KT 31/18 A2995 RMK A01 T03080180  RH  046%=      5-min Rain = 0
KCH1 180210Z 17008KT 31/18 A2995 RMK A01 T03080179  RH  046%=      5-min Rain = 0
KCH1 180211Z 16007KT 31/18 A2995 RMK A01 T03090179  RH  046%=      5-min Rain = 0
KCH1 180212Z 17006KT 31/18 A2996 RMK A01 T03090180  RH  046%=      5-min Rain = 0
KCH1 180213Z 17008KT 31/18 A2996 RMK A01 T03080179  RH  046%=      5-min Rain = 0
KCH1 180214Z 16008KT 31/18 A2996 RMK A01 T03080179  RH  046%=      5-min Rain = 0
KCH1 180215Z 17008KT 31/18 A2996 RMK A01 T03080179  RH  046%=      5-min Rain = 0
KCH1 180216Z 17008KT 31/18 A2996 RMK A01 T03080179  RH  046%=      5-min Rain = 0
KCH1 180217Z 17006KT 31/18 A2996 RMK A01 T03080179  RH  046%=      5-min Rain = 0
KCH1 180218Z 17008KT 31/18 A2996 RMK A01 T03080179  RH  046%=      5-min Rain = 0
KCH1 180219Z 16007KT 31/18 A2996 RMK A01 T03070179  RH  046%=      5-min Rain = 0
KCH1 180220Z 17008KT 31/18 A2996 RMK A01 T03070180  RH  046%=      5-min Rain = 0
KCH1 180221Z 17008KT 31/18 A2996 RMK A01 T03070179  RH  046%=      5-min Rain = 0
KCH1 180222Z 17008KT 31/18 A2996 RMK A01 T03070179  RH  046%=      5-min Rain = 0
KCH1 180223Z 17006KT 31/18 A2996 RMK A01 T03070179  RH  047%=      5-min Rain = 0
KCH1 180224Z 17008KT 31/18 A2996 RMK A01 T03060179  RH  047%=      5-min Rain = 0
KCH1 180225Z 17007KT 31/18 A2996 RMK A01 T03060179  RH  047%=      5-min Rain = 0
KCH1 180226Z 17007KT 31/18 A2996 RMK A01 T03060180  RH  047%=      5-min Rain = 0
KCH1 180227Z 17007KT 31/18 A2996 RMK A01 T03060180  RH  047%=      5-min Rain = 0
KCH1 180228Z 17007KT 31/18 A2996 RMK A01 T03050179  RH  047%=      5-min Rain = 0
KCH1 180229Z 17008KT 31/18 A2996 RMK A01 T03050179  RH  047%=      5-min Rain = 0
KCH1 180230Z 17007KT 31/18 A2996 RMK A01 T03050179  RH  047%=      5-min Rain = 0
KCH1 180231Z 17007KT 30/18 A2996 RMK A01 T03040180  RH  047%=      5-min Rain = 0
KCH1 180232Z 17007KT 30/18 A2996 RMK A01 T03040180  RH  047%=      5-min Rain = 0
KCH1 180233Z 17007KT 30/18 A2996 RMK A01 T03040180  RH  047%=      5-min Rain = 0
KCH1 180234Z 17009KT 30/18 A2996 RMK A01 T03030179  RH  048%=      5-min Rain = 0
KCH1 180235Z 16007KT 30/18 A2996 RMK A01 T03030179  RH  047%=      5-min Rain = 0
KCH1 180236Z 17006KT 30/18 A2996 RMK A01 T03040180  RH  047%=      5-min Rain = 0
KCH1 180237Z 17006KT 30/18 A2996 RMK A01 T03030180  RH  048%=      5-min Rain = 0
KCH1 180238Z 16006KT 30/18 A2996 RMK A01 T03030180  RH  048%=      5-min Rain = 0
KCH1 180239Z 17006KT 30/18 A2996 RMK A01 T03020180  RH  048%=      5-min Rain = 0
KCH1 180240Z 16006KT 30/18 A2996 RMK A01 T03020180  RH  048%=      5-min Rain = 0
KCH1 180241Z 17008KT 30/18 A2996 RMK A01 T03020180  RH  048%=      5-min Rain = 0
KCH1 180242Z 17007KT 30/18 A2996 RMK A01 T03010180  RH  048%=      5-min Rain = 0
KCH1 180243Z 17006KT 30/18 A2996 RMK A01 T03010180  RH  048%=      5-min Rain = 0
KCH1 180244Z 17006KT 30/18 A2996 RMK A01 T03010180  RH  048%=      5-min Rain = 0
KCH1 180245Z 17005KT 30/18 A2996 RMK A01 T03000180  RH  049%=      5-min Rain = 0
KCH1 180246Z 16006KT 30/18 A2996 RMK A01 T02990180  RH  049%=      5-min Rain = 0
KCH1 180247Z 16006KT 30/18 A2997 RMK A01 T02990180  RH  049%=      5-min Rain = 0
KCH1 180248Z 16006KT 30/18 A2997 RMK A01 T02980180  RH  049%=      5-min Rain = 0
KCH1 180249Z 16007KT 30/18 A2997 RMK A01 T02980179  RH  049%=      5-min Rain = 0
KCH1 180250Z 16007KT 30/18 A2997 RMK A01 T02980180  RH  049%=      5-min Rain = 0
KCH1 180251Z 16007KT 30/18 A2997 RMK A01 T02980180  RH  049%=      5-min Rain = 0
KCH1 180252Z 16008KT 30/18 A2997 RMK A01 T02980180  RH  049%=      5-min Rain = 0
KCH1 180253Z 16007KT 30/18 A2997 RMK A01 T02980180  RH  049%=      5-min Rain = 0
KCH1 180254Z 16006KT 30/18 A2997 RMK A01 T02980180  RH  049%=      5-min Rain = 0
KCH1 180255Z 16006KT 30/18 A2997 RMK A01 T02970181  RH  050%=      5-min Rain = 0
KCH1 180256Z 15006KT 30/18 A2997 RMK A01 T02960180  RH  050%=      5-min Rain = 0
KCH1 180257Z 15008KT 30/18 A2997 RMK A01 T02950180  RH  050%=      5-min Rain = 0
KCH1 180258Z 15007KT 30/18 A2997 RMK A01 T02950180  RH  050%=      5-min Rain = 0
KCH1 180259Z 16006KT 30/18 A2997 RMK A01 T02960180  RH  050%=      5-min Rain = 0
KCH1 180300Z 15006KT 30/18 A2997 RMK A01 T02960181  RH  050%=      5-min Rain = 0
KCH1 180301Z 15007KT 30/18 A2997 RMK A01 T02950181  RH  050%=      5-min Rain = 0
KCH1 180302Z 15007KT 30/18 A2997 RMK A01 T02950181  RH  050%=      5-min Rain = 0
KCH1 180303Z 15006KT 30/18 A2997 RMK A01 T02950181  RH  050%=      5-min Rain = 0
KCH1 180304Z 15008KT 30/18 A2997 RMK A01 T02950181  RH  050%=      5-min Rain = 0
KCH1 180305Z 16009KT 30/18 A2997 RMK A01 T02950181  RH  050%=      5-min Rain = 0
KCH1 180306Z 16008KT 30/18 A2997 RMK A01 T02950181  RH  050%=      5-min Rain = 0
KCH1 180307Z 15008KT 30/18 A2997 RMK A01 T02950181  RH  050%=      5-min Rain = 0
KCH1 180308Z 16008KT 30/18 A2997 RMK A01 T02950182  RH  050%=      5-min Rain = 0
KCH1 180309Z 15008KT 30/18 A2997 RMK A01 T02960182  RH  051%=      5-min Rain = 0
KCH1 180310Z 16008KT 30/18 A2997 RMK A01 T02960183  RH  051%=      5-min Rain = 0
KCH1 180311Z 16008KT 30/18 A2997 RMK A01 T02950183  RH  051%=      5-min Rain = 0
KCH1 180312Z 15010KT 30/18 A2997 RMK A01 T02950183  RH  051%=      5-min Rain = 0
KCH1 180313Z 15008KT 30/18 A2997 RMK A01 T02960183  RH  051%=      5-min Rain = 0
KCH1 180314Z 16007KT 30/18 A2997 RMK A01 T02960183  RH  051%=      5-min Rain = 0
KCH1 180315Z 16008KT 30/18 A2997 RMK A01 T02960184  RH  051%=      5-min Rain = 0
KCH1 180316Z 15008KT 30/18 A2997 RMK A01 T02950184  RH  051%=      5-min Rain = 0
KCH1 180317Z 16008KT 30/19 A2997 RMK A01 T02950185  RH  051%=      5-min Rain = 0
KCH1 180318Z 16008KT 30/19 A2997 RMK A01 T02950185  RH  052%=      5-min Rain = 0
KCH1 180319Z 16007KT 29/19 A2997 RMK A01 T02940185  RH  052%=      5-min Rain = 0
KCH1 180320Z 16008KT 29/19 A2998 RMK A01 T02940185  RH  052%=      5-min Rain = 0
KCH1 180321Z 16009KT 29/19 A2998 RMK A01 T02940185  RH  052%=      5-min Rain = 0
KCH1 180322Z 16006KT 29/19 A2998 RMK A01 T02940186  RH  052%=      5-min Rain = 0
KCH1 180323Z 16009KT 29/19 A2998 RMK A01 T02930186  RH  052%=      5-min Rain = 0
KCH1 180324Z 15008KT 29/19 A2998 RMK A01 T02930186  RH  052%=      5-min Rain = 0
KCH1 180325Z 16006KT 29/19 A2998 RMK A01 T02930186  RH  053%=      5-min Rain = 0
KCH1 180326Z 16007KT 29/19 A2998 RMK A01 T02920187  RH  053%=      5-min Rain = 0
KCH1 180327Z 16006KT 29/19 A2998 RMK A01 T02920186  RH  053%=      5-min Rain = 0
KCH1 180328Z 16006KT 29/19 A2998 RMK A01 T02910186  RH  053%=      5-min Rain = 0
KCH1 180329Z 15005KT 29/19 A2998 RMK A01 T02910187  RH  053%=      5-min Rain = 0
KCH1 180330Z 16006KT 29/19 A2998 RMK A01 T02910187  RH  053%=      5-min Rain = 0
KCH1 180331Z 16006KT 29/19 A2998 RMK A01 T02900187  RH  054%=      5-min Rain = 0
KCH1 180332Z 16007KT 29/19 A2998 RMK A01 T02890187  RH  054%=      5-min Rain = 0
KCH1 180333Z 15007KT 29/19 A2998 RMK A01 T02890187  RH  054%=      5-min Rain = 0
KCH1 180334Z 15007KT 29/19 A2998 RMK A01 T02890187  RH  054%=      5-min Rain = 0
KCH1 180335Z 16007KT 29/19 A2998 RMK A01 T02890188  RH  054%=      5-min Rain = 0
KCH1 180336Z 16009KT 29/19 A2998 RMK A01 T02890188  RH  054%=      5-min Rain = 0
KCH1 180337Z 16008KT 29/19 A2998 RMK A01 T02900189  RH  054%=      5-min Rain = 0
KCH1 180338Z 16006KT 29/19 A2999 RMK A01 T02900189  RH  054%=      5-min Rain = 0
KCH1 180339Z 16008KT 29/19 A2999 RMK A01 T02900189  RH  054%=      5-min Rain = 0
KCH1 180340Z 16008KT 29/19 A2999 RMK A01 T02900189  RH  055%=      5-min Rain = 0
KCH1 180341Z 15006KT 29/19 A2999 RMK A01 T02900189  RH  055%=      5-min Rain = 0
KCH1 180342Z 16007KT 29/19 A2999 RMK A01 T02900190  RH  055%=      5-min Rain = 0
KCH1 180343Z 16009KT 29/19 A2999 RMK A01 T02900190  RH  055%=      5-min Rain = 0
KCH1 180344Z 17007KT 29/19 A2999 RMK A01 T02910191  RH  055%=      5-min Rain = 0
KCH1 180345Z 16007KT 29/19 A2999 RMK A01 T02900190  RH  055%=      5-min Rain = 0
KCH1 180346Z 16008KT 29/19 A2999 RMK A01 T02900190  RH  055%=      5-min Rain = 0
KCH1 180347Z 16007KT 29/19 A2999 RMK A01 T02900191  RH  055%=      5-min Rain = 0
KCH1 180348Z 16007KT 29/19 A2999 RMK A01 T02890191  RH  055%=      5-min Rain = 0
KCH1 180349Z 16007KT 29/19 A2999 RMK A01 T02890191  RH  055%=      5-min Rain = 0
KCH1 180350Z 16007KT 29/19 A2999 RMK A01 T02890191  RH  056%=      5-min Rain = 0
KCH1 180351Z 17006KT 29/19 A2999 RMK A01 T02890191  RH  056%=      5-min Rain = 0
KCH1 180352Z 16006KT 29/19 A2999 RMK A01 T02890191  RH  056%=      5-min Rain = 0
KCH1 180353Z 17007KT 29/19 A2999 RMK A01 T02890192  RH  056%=      5-min Rain = 0
KCH1 180354Z 16006KT 29/19 A2999 RMK A01 T02890192  RH  056%=      5-min Rain = 0
KCH1 180355Z 17007KT 29/19 A2999 RMK A01 T02890192  RH  056%=      5-min Rain = 0
KCH1 180356Z 16008KT 29/19 A2999 RMK A01 T02890192  RH  056%=      5-min Rain = 0
KCH1 180357Z 16006KT 29/19 A2999 RMK A01 T02890192  RH  056%=      5-min Rain = 0
KCH1 180358Z 17009KT 29/19 A2999 RMK A01 T02890192  RH  056%=      5-min Rain = 0
KCH1 180359Z 17007KT 29/19 A30 RMK A01 T02890192  RH  056%=      5-min Rain = 0
KCH1 180400Z 17008KT 29/19 A30 RMK A01 T02890192  RH  056%=      5-min Rain = 0
KCH1 180401Z 16008KT 29/19 A30 RMK A01 T02890192  RH  056%=      5-min Rain = 0
KCH1 180402Z 16009KT 29/19 A30 RMK A01 T02890192  RH  056%=      5-min Rain = 0
KCH1 180403Z 16007KT 29/19 A30 RMK A01 T02890192  RH  056%=      5-min Rain = 0
KCH1 180404Z 16008KT 29/19 A30 RMK A01 T02900192  RH  056%=      5-min Rain = 0
KCH1 180405Z 16009KT 29/19 A30 RMK A01 T02890192  RH  056%=      5-min Rain = 0
KCH1 180406Z 16005KT 29/19 A30 RMK A01 T02890193  RH  056%=      5-min Rain = 0
KCH1 180407Z 16007KT 29/19 A30 RMK A01 T02890193  RH  056%=      5-min Rain = 0
KCH1 180408Z 16006KT 29/19 A30 RMK A01 T02870193  RH  056%=      5-min Rain = 0
KCH1 180409Z 16007KT 29/19 A30 RMK A01 T02870193  RH  057%=      5-min Rain = 0
KCH1 180410Z 16007KT 29/19 A30 RMK A01 T02870193  RH  057%=      5-min Rain = 0
KCH1 180411Z 15005KT 29/19 A30 RMK A01 T02870193  RH  057%=      5-min Rain = 0
KCH1 180412Z 16005KT 29/19 A30 RMK A01 T02860193  RH  057%=      5-min Rain = 0
KCH1 180413Z 16006KT 29/19 A30 RMK A01 T02850193  RH  057%=      5-min Rain = 0
KCH1 180414Z 16006KT 29/19 A30 RMK A01 T02850193  RH  057%=      5-min Rain = 0
KCH1 180415Z 16007KT 29/19 A30 RMK A01 T02850193  RH  057%=      5-min Rain = 0
KCH1 180416Z 16007KT 29/19 A30 RMK A01 T02850193  RH  057%=      5-min Rain = 0
KCH1 180417Z 16008KT 29/19 A30 RMK A01 T02850193  RH  057%=      5-min Rain = 0
KCH1 180418Z 16008KT 29/19 A30 RMK A01 T02850193  RH  057%=      5-min Rain = 0
KCH1 180419Z 16008KT 29/19 A30 RMK A01 T02850193  RH  057%=      5-min Rain = 0
KCH1 180420Z 16006KT 29/19 A30 RMK A01 T02850193  RH  057%=      5-min Rain = 0
KCH1 180421Z 16009KT 29/19 A30 RMK A01 T02850194  RH  058%=      5-min Rain = 0
KCH1 180422Z 16008KT 28/19 A30 RMK A01 T02840193  RH  058%=      5-min Rain = 0
KCH1 180423Z 15009KT 28/19 A30 RMK A01 T02840193  RH  058%=      5-min Rain = 0
KCH1 180424Z 15007KT 28/19 A30 RMK A01 T02840194  RH  058%=      5-min Rain = 0
KCH1 180425Z 16007KT 28/19 A30 RMK A01 T02840194  RH  058%=      5-min Rain = 0
KCH1 180426Z 15006KT 28/19 A30 RMK A01 T02840194  RH  058%=      5-min Rain = 0
KCH1 180427Z 16007KT 28/19 A30 RMK A01 T02840194  RH  058%=      5-min Rain = 0
KCH1 180428Z 15007KT 28/19 A30 RMK A01 T02840194  RH  058%=      5-min Rain = 0
KCH1 180429Z 15007KT 28/19 A30 RMK A01 T02830194  RH  058%=      5-min Rain = 0
KCH1 180430Z 15006KT 28/19 A2999 RMK A01 T02830194  RH  059%=      5-min Rain = 0
KCH1 180431Z 15006KT 28/19 A2999 RMK A01 T02820194  RH  059%=      5-min Rain = 0
KCH1 180432Z 15007KT 28/19 A2999 RMK A01 T02810194  RH  059%=      5-min Rain = 0
KCH1 180433Z 15006KT 28/19 A2999 RMK A01 T02810194  RH  059%=      5-min Rain = 0
KCH1 180434Z 15006KT 28/19 A2999 RMK A01 T02810194  RH  059%=      5-min Rain = 0
KCH1 180435Z 15005KT 28/19 A2999 RMK A01 T02810194  RH  059%=      5-min Rain = 0
KCH1 180436Z 16006KT 28/19 A2999 RMK A01 T02810194  RH  059%=      5-min Rain = 0
KCH1 180437Z 15006KT 28/19 A2999 RMK A01 T02800194  RH  060%=      5-min Rain = 0
KCH1 180438Z 16005KT 28/19 A2999 RMK A01 T02800194  RH  060%=      5-min Rain = 0
KCH1 180439Z 15008KT 28/19 A2999 RMK A01 T02800194  RH  060%=      5-min Rain = 0
KCH1 180440Z 15008KT 28/19 A2999 RMK A01 T02800194  RH  060%=      5-min Rain = 0
KCH1 180441Z 16006KT 28/19 A2999 RMK A01 T02810194  RH  059%=      5-min Rain = 0
KCH1 180442Z 16007KT 28/19 A2999 RMK A01 T02810194  RH  059%=      5-min Rain = 0
KCH1 180443Z 15006KT 28/20 A2999 RMK A01 T02810195  RH  060%=      5-min Rain = 0
KCH1 180444Z 16006KT 28/20 A2999 RMK A01 T02800195  RH  060%=      5-min Rain = 0
KCH1 180445Z 16006KT 28/20 A2999 RMK A01 T02790195  RH  060%=      5-min Rain = 0
KCH1 180446Z 15007KT 28/19 A30 RMK A01 T02780194  RH  060%=      5-min Rain = 0
KCH1 180447Z 16006KT 28/19 A30 RMK A01 T02780194  RH  060%=      5-min Rain = 0
KCH1 180448Z 16007KT 28/20 A30 RMK A01 T02790195  RH  060%=      5-min Rain = 0
KCH1 180449Z 16006KT 28/20 A30 RMK A01 T02780195  RH  060%=      5-min Rain = 0
KCH1 180450Z 15007KT 28/20 A30 RMK A01 T02790195  RH  060%=      5-min Rain = 0
KCH1 180451Z 16006KT 28/20 A30 RMK A01 T02790195  RH  060%=      5-min Rain = 0
KCH1 180452Z 16007KT 28/20 A30 RMK A01 T02780195  RH  061%=      5-min Rain = 0
KCH1 180453Z 16005KT 28/20 A30 RMK A01 T02780195  RH  061%=      5-min Rain = 0
KCH1 180454Z 16006KT 28/20 A30 RMK A01 T02780195  RH  061%=      5-min Rain = 0
KCH1 180455Z 16008KT 28/20 A2999 RMK A01 T02770195  RH  061%=      5-min Rain = 0
KCH1 180456Z 16008KT 28/20 A2999 RMK A01 T02770195  RH  061%=      5-min Rain = 0
KCH1 180457Z 17008KT 28/20 A2999 RMK A01 T02780195  RH  061%=      5-min Rain = 0
KCH1 180458Z 16006KT 28/20 A2999 RMK A01 T02780196  RH  061%=      5-min Rain = 0
KCH1 180459Z 16008KT 28/20 A2999 RMK A01 T02770195  RH  061%=      5-min Rain = 0

Page generated in 0.1214 seconds.